<?xml version="1.0" encoding="UTF-8"?>
<gpx version="1.1" creator="2bulu-scraper" xmlns="http://www.topografix.com/GPX/1/1">
  <metadata><name>泸州合江县</name><desc>source: 2bulu.com trackId=76307550; exported 2026-09-01T14:42:49.524Z</desc>
    <bounds minlat="28.6576062" minlon="105.6479789" maxlat="28.6757506" maxlon="105.6741182"/>
    <link href="https://www.2bulu.com/track/t-LW8FLKGYWPPp%252FR2KBg5Tzw%253D%253D.htm"><text>2bulu 源页面</text></link>
  </metadata>
  <wpt lat="28.6652558" lon="105.6734901"><ele>319</ele><name>
        </name></wpt>
  <wpt lat="28.6649647" lon="105.6728121"><ele>328</ele><name>
        </name></wpt>
  <wpt lat="28.6631963" lon="105.6684483"><ele>461</ele><name>
        </name></wpt>
  <wpt lat="28.662899" lon="105.6679026"><ele>500</ele><name>
        </name></wpt>
  <wpt lat="28.6620081" lon="105.6670643"><ele>575</ele><name>
        </name></wpt>
  <wpt lat="28.6620011" lon="105.6670183"><ele>577</ele><name>
        </name></wpt>
  <wpt lat="28.660907" lon="105.6662106"><ele>670</ele><name>
        </name></wpt>
  <wpt lat="28.6608676" lon="105.6661112"><ele>676</ele><name>
        </name></wpt>
  <wpt lat="28.6603765" lon="105.666087"><ele>720</ele><name>
        </name></wpt>
  <wpt lat="28.6631674" lon="105.657468"><ele>720</ele><name>
        </name></wpt>
  <wpt lat="28.6617892" lon="105.6568885"><ele>686</ele><name>
        </name></wpt>
  <wpt lat="28.6617892" lon="105.6568885"><ele>686</ele><name>
        </name></wpt>
  <wpt lat="28.6616206" lon="105.6569242"><ele>684</ele><name>
        </name></wpt>
  <wpt lat="28.6608035" lon="105.6568792"><ele>685</ele><name>
        </name></wpt>
  <wpt lat="28.6591975" lon="105.6566969"><ele>668</ele><name>
        </name></wpt>
  <wpt lat="28.6591975" lon="105.6566969"><ele>668</ele><name>
        </name></wpt>
  <wpt lat="28.658381" lon="105.6555009"><ele>627</ele><name>
        </name></wpt>
  <wpt lat="28.6577065" lon="105.6552605"><ele>628</ele><name>
        </name></wpt>
  <wpt lat="28.6653591" lon="105.6506363"><ele>723</ele><name>
        </name></wpt>
  <wpt lat="28.6661306" lon="105.6499162"><ele>724</ele><name>开始下山
        </name></wpt>
  <wpt lat="28.6672741" lon="105.6488311"><ele>645</ele><name>
        </name></wpt>
  <wpt lat="28.6687769" lon="105.6493538"><ele>557</ele><name>三岔路口
        </name></wpt>
  <wpt lat="28.6687769" lon="105.6493538"><ele>557</ele><name>
        </name></wpt>
  <wpt lat="28.6702382" lon="105.6542297"><ele>449</ele><name>
        </name></wpt>
  <wpt lat="28.6703754" lon="105.6541768"><ele>446</ele><name>
        </name></wpt>
  <wpt lat="28.6703754" lon="105.6541768"><ele>446</ele><name>
        </name></wpt>
  <wpt lat="28.6707006" lon="105.6552668"><ele>413</ele><name>农户
        </name></wpt>
  <wpt lat="28.6747769" lon="105.6676766"><ele>272</ele><name>
        </name></wpt>
  <trk><name>泸州合江县</name>
      <trkseg>
        <trkpt lat="28.675653" lon="105.6702019"><ele>279.76</ele><time>2025-12-17T19:54:31.000Z</time></trkpt>
        <trkpt lat="28.6755701" lon="105.6702528"><ele>279.76</ele><time>2025-12-17T19:55:46.000Z</time></trkpt>
        <trkpt lat="28.6754858" lon="105.6702896"><ele>280.39</ele><time>2025-12-17T19:55:58.000Z</time></trkpt>
        <trkpt lat="28.6753969" lon="105.670299"><ele>280.9</ele><time>2025-12-17T19:56:19.000Z</time></trkpt>
        <trkpt lat="28.6752902" lon="105.6703167"><ele>281.78</ele><time>2025-12-17T19:56:53.000Z</time></trkpt>
        <trkpt lat="28.6751895" lon="105.6703461"><ele>282.92</ele><time>2025-12-17T19:57:05.000Z</time></trkpt>
        <trkpt lat="28.6750899" lon="105.6703209"><ele>284.08</ele><time>2025-12-17T19:57:17.000Z</time></trkpt>
        <trkpt lat="28.6749962" lon="105.6703236"><ele>284.77</ele><time>2025-12-17T19:57:47.000Z</time></trkpt>
        <trkpt lat="28.6749183" lon="105.6703718"><ele>285.18</ele><time>2025-12-17T19:57:55.000Z</time></trkpt>
        <trkpt lat="28.6748697" lon="105.6703207"><ele>285.22</ele><time>2025-12-17T19:58:09.000Z</time></trkpt>
        <trkpt lat="28.6747961" lon="105.6702712"><ele>284.01</ele><time>2025-12-17T19:58:19.000Z</time></trkpt>
        <trkpt lat="28.674712" lon="105.6702805"><ele>282.6</ele><time>2025-12-17T19:58:29.000Z</time></trkpt>
        <trkpt lat="28.6746189" lon="105.6703372"><ele>281.16</ele><time>2025-12-17T19:58:40.000Z</time></trkpt>
        <trkpt lat="28.6745215" lon="105.670363"><ele>279.43</ele><time>2025-12-17T19:58:52.000Z</time></trkpt>
        <trkpt lat="28.6744308" lon="105.6703134"><ele>278.32</ele><time>2025-12-17T19:59:05.000Z</time></trkpt>
        <trkpt lat="28.6743407" lon="105.6702529"><ele>277.35</ele><time>2025-12-17T19:59:19.000Z</time></trkpt>
        <trkpt lat="28.6742467" lon="105.6702589"><ele>276.71</ele><time>2025-12-17T19:59:44.000Z</time></trkpt>
        <trkpt lat="28.6741821" lon="105.6703367"><ele>275.96</ele><time>2025-12-17T19:59:54.000Z</time></trkpt>
        <trkpt lat="28.6741177" lon="105.6704329"><ele>275.32</ele><time>2025-12-17T20:00:07.000Z</time></trkpt>
        <trkpt lat="28.6740628" lon="105.6705284"><ele>275.43</ele><time>2025-12-17T20:00:17.000Z</time></trkpt>
        <trkpt lat="28.6740064" lon="105.6706223"><ele>276.66</ele><time>2025-12-17T20:00:27.000Z</time></trkpt>
        <trkpt lat="28.6739413" lon="105.6707117"><ele>278.3</ele><time>2025-12-17T20:00:39.000Z</time></trkpt>
        <trkpt lat="28.6738661" lon="105.6707953"><ele>279.67</ele><time>2025-12-17T20:00:51.000Z</time></trkpt>
        <trkpt lat="28.6738002" lon="105.670882"><ele>280.47</ele><time>2025-12-17T20:01:02.000Z</time></trkpt>
        <trkpt lat="28.6737318" lon="105.6709762"><ele>280.03</ele><time>2025-12-17T20:01:12.000Z</time></trkpt>
        <trkpt lat="28.6736696" lon="105.671064"><ele>280</ele><time>2025-12-17T20:01:22.000Z</time></trkpt>
        <trkpt lat="28.6736054" lon="105.6711445"><ele>280.79</ele><time>2025-12-17T20:01:32.000Z</time></trkpt>
        <trkpt lat="28.6735366" lon="105.6712195"><ele>282.23</ele><time>2025-12-17T20:01:42.000Z</time></trkpt>
        <trkpt lat="28.673457" lon="105.671294"><ele>283.94</ele><time>2025-12-17T20:01:52.000Z</time></trkpt>
        <trkpt lat="28.6733802" lon="105.6713663"><ele>285.21</ele><time>2025-12-17T20:02:02.000Z</time></trkpt>
        <trkpt lat="28.6733001" lon="105.6714252"><ele>286.58</ele><time>2025-12-17T20:02:12.000Z</time></trkpt>
        <trkpt lat="28.6732174" lon="105.6714686"><ele>288.27</ele><time>2025-12-17T20:02:22.000Z</time></trkpt>
        <trkpt lat="28.6731297" lon="105.671503"><ele>289.38</ele><time>2025-12-17T20:02:32.000Z</time></trkpt>
        <trkpt lat="28.6730446" lon="105.671541"><ele>290.74</ele><time>2025-12-17T20:02:43.000Z</time></trkpt>
        <trkpt lat="28.6729606" lon="105.6715918"><ele>292.39</ele><time>2025-12-17T20:02:53.000Z</time></trkpt>
        <trkpt lat="28.6728772" lon="105.671656"><ele>293.15</ele><time>2025-12-17T20:03:03.000Z</time></trkpt>
        <trkpt lat="28.6728088" lon="105.6717332"><ele>294.3</ele><time>2025-12-17T20:03:13.000Z</time></trkpt>
        <trkpt lat="28.6727517" lon="105.6718353"><ele>293.73</ele><time>2025-12-17T20:03:23.000Z</time></trkpt>
        <trkpt lat="28.6727148" lon="105.6719477"><ele>293.34</ele><time>2025-12-17T20:03:33.000Z</time></trkpt>
        <trkpt lat="28.6726822" lon="105.6720542"><ele>292.27</ele><time>2025-12-17T20:03:43.000Z</time></trkpt>
        <trkpt lat="28.6726528" lon="105.6721557"><ele>291.62</ele><time>2025-12-17T20:03:53.000Z</time></trkpt>
        <trkpt lat="28.6726372" lon="105.672261"><ele>291.27</ele><time>2025-12-17T20:04:05.000Z</time></trkpt>
        <trkpt lat="28.6726006" lon="105.6723636"><ele>290.25</ele><time>2025-12-17T20:04:15.000Z</time></trkpt>
        <trkpt lat="28.6725643" lon="105.6724708"><ele>290.3</ele><time>2025-12-17T20:04:27.000Z</time></trkpt>
        <trkpt lat="28.6725366" lon="105.672589"><ele>290.8</ele><time>2025-12-17T20:04:39.000Z</time></trkpt>
        <trkpt lat="28.6724947" lon="105.6726982"><ele>290.28</ele><time>2025-12-17T20:04:49.000Z</time></trkpt>
        <trkpt lat="28.6724418" lon="105.6727902"><ele>290.95</ele><time>2025-12-17T20:04:57.000Z</time></trkpt>
        <trkpt lat="28.6723881" lon="105.672875"><ele>291.55</ele><time>2025-12-17T20:05:05.000Z</time></trkpt>
        <trkpt lat="28.6723265" lon="105.672962"><ele>291.62</ele><time>2025-12-17T20:05:15.000Z</time></trkpt>
        <trkpt lat="28.6722586" lon="105.6730439"><ele>292.21</ele><time>2025-12-17T20:05:25.000Z</time></trkpt>
        <trkpt lat="28.6721869" lon="105.6731237"><ele>293.12</ele><time>2025-12-17T20:05:35.000Z</time></trkpt>
        <trkpt lat="28.6721201" lon="105.6731707"><ele>293.51</ele><time>2025-12-17T20:05:47.000Z</time></trkpt>
        <trkpt lat="28.6721338" lon="105.6730928"><ele>294.78</ele><time>2025-12-17T20:05:57.000Z</time></trkpt>
        <trkpt lat="28.6721516" lon="105.6730424"><ele>293.69</ele><time>2025-12-17T20:05:59.000Z</time></trkpt>
        <trkpt lat="28.6721007" lon="105.6729725"><ele>292.62</ele><time>2025-12-17T20:06:20.000Z</time></trkpt>
        <trkpt lat="28.6720094" lon="105.6729426"><ele>289.13</ele><time>2025-12-17T20:06:30.000Z</time></trkpt>
        <trkpt lat="28.671908" lon="105.6729432"><ele>286.36</ele><time>2025-12-17T20:06:44.000Z</time></trkpt>
        <trkpt lat="28.6718215" lon="105.6730069"><ele>285.99</ele><time>2025-12-17T20:06:58.000Z</time></trkpt>
        <trkpt lat="28.6717433" lon="105.673089"><ele>286.96</ele><time>2025-12-17T20:07:08.000Z</time></trkpt>
        <trkpt lat="28.6716633" lon="105.6731717"><ele>289.3</ele><time>2025-12-17T20:07:20.000Z</time></trkpt>
        <trkpt lat="28.6715765" lon="105.6732389"><ele>290.83</ele><time>2025-12-17T20:07:30.000Z</time></trkpt>
        <trkpt lat="28.6714985" lon="105.6733011"><ele>293.21</ele><time>2025-12-17T20:07:40.000Z</time></trkpt>
        <trkpt lat="28.6714165" lon="105.6733696"><ele>295.38</ele><time>2025-12-17T20:07:52.000Z</time></trkpt>
        <trkpt lat="28.6713354" lon="105.6734434"><ele>297.14</ele><time>2025-12-17T20:08:02.000Z</time></trkpt>
        <trkpt lat="28.6712449" lon="105.6734897"><ele>299.01</ele><time>2025-12-17T20:08:12.000Z</time></trkpt>
        <trkpt lat="28.6711493" lon="105.6735077"><ele>300.85</ele><time>2025-12-17T20:08:22.000Z</time></trkpt>
        <trkpt lat="28.6710517" lon="105.6734996"><ele>302.67</ele><time>2025-12-17T20:08:32.000Z</time></trkpt>
        <trkpt lat="28.6709678" lon="105.6734516"><ele>304.75</ele><time>2025-12-17T20:08:42.000Z</time></trkpt>
        <trkpt lat="28.6708983" lon="105.6733725"><ele>305.04</ele><time>2025-12-17T20:08:52.000Z</time></trkpt>
        <trkpt lat="28.6708186" lon="105.6733157"><ele>303.41</ele><time>2025-12-17T20:09:02.000Z</time></trkpt>
        <trkpt lat="28.6707228" lon="105.6733033"><ele>301.9</ele><time>2025-12-17T20:09:12.000Z</time></trkpt>
        <trkpt lat="28.6706216" lon="105.6733163"><ele>301.3</ele><time>2025-12-17T20:09:22.000Z</time></trkpt>
        <trkpt lat="28.6705168" lon="105.6733311"><ele>301.48</ele><time>2025-12-17T20:09:34.000Z</time></trkpt>
        <trkpt lat="28.6704349" lon="105.6732828"><ele>303.04</ele><time>2025-12-17T20:10:00.000Z</time></trkpt>
        <trkpt lat="28.6703555" lon="105.6733052"><ele>299.74</ele><time>2025-12-17T20:10:08.000Z</time></trkpt>
        <trkpt lat="28.670262" lon="105.6733277"><ele>298.32</ele><time>2025-12-17T20:10:20.000Z</time></trkpt>
        <trkpt lat="28.6701715" lon="105.6733142"><ele>297.63</ele><time>2025-12-17T20:10:32.000Z</time></trkpt>
        <trkpt lat="28.6700848" lon="105.6732678"><ele>298.2</ele><time>2025-12-17T20:10:42.000Z</time></trkpt>
        <trkpt lat="28.6699949" lon="105.6732082"><ele>298.38</ele><time>2025-12-17T20:10:54.000Z</time></trkpt>
        <trkpt lat="28.6699075" lon="105.6731491"><ele>299.06</ele><time>2025-12-17T20:11:06.000Z</time></trkpt>
        <trkpt lat="28.6698403" lon="105.6730753"><ele>299.92</ele><time>2025-12-17T20:11:16.000Z</time></trkpt>
        <trkpt lat="28.6697665" lon="105.6729957"><ele>300</ele><time>2025-12-17T20:11:28.000Z</time></trkpt>
        <trkpt lat="28.6696857" lon="105.6729437"><ele>299.41</ele><time>2025-12-17T20:11:38.000Z</time></trkpt>
        <trkpt lat="28.6696094" lon="105.6728824"><ele>299.12</ele><time>2025-12-17T20:11:52.000Z</time></trkpt>
        <trkpt lat="28.6695228" lon="105.6728291"><ele>298.37</ele><time>2025-12-17T20:12:04.000Z</time></trkpt>
        <trkpt lat="28.6694615" lon="105.6727931"><ele>297.99</ele><time>2025-12-17T20:12:12.000Z</time></trkpt>
        <trkpt lat="28.6694023" lon="105.6727265"><ele>297.71</ele><time>2025-12-17T20:12:25.000Z</time></trkpt>
        <trkpt lat="28.6693475" lon="105.6726459"><ele>297.69</ele><time>2025-12-17T20:12:37.000Z</time></trkpt>
        <trkpt lat="28.6692697" lon="105.672585"><ele>297.08</ele><time>2025-12-17T20:12:51.000Z</time></trkpt>
        <trkpt lat="28.669179" lon="105.6725436"><ele>297.13</ele><time>2025-12-17T20:13:06.000Z</time></trkpt>
        <trkpt lat="28.6690794" lon="105.6725104"><ele>297.56</ele><time>2025-12-17T20:13:18.000Z</time></trkpt>
        <trkpt lat="28.6689867" lon="105.6724592"><ele>297.98</ele><time>2025-12-17T20:13:30.000Z</time></trkpt>
        <trkpt lat="28.6689094" lon="105.6723779"><ele>298.57</ele><time>2025-12-17T20:13:42.000Z</time></trkpt>
        <trkpt lat="28.6688428" lon="105.6722836"><ele>298.83</ele><time>2025-12-17T20:13:54.000Z</time></trkpt>
        <trkpt lat="28.6687957" lon="105.6721826"><ele>298.94</ele><time>2025-12-17T20:14:06.000Z</time></trkpt>
        <trkpt lat="28.6687601" lon="105.672083"><ele>298.46</ele><time>2025-12-17T20:14:24.000Z</time></trkpt>
        <trkpt lat="28.668699" lon="105.6719987"><ele>297.6</ele><time>2025-12-17T20:14:36.000Z</time></trkpt>
        <trkpt lat="28.6686117" lon="105.6719542"><ele>296.44</ele><time>2025-12-17T20:14:48.000Z</time></trkpt>
        <trkpt lat="28.6685099" lon="105.671966"><ele>295.39</ele><time>2025-12-17T20:15:00.000Z</time></trkpt>
        <trkpt lat="28.6684081" lon="105.6720087"><ele>293.9</ele><time>2025-12-17T20:15:10.000Z</time></trkpt>
        <trkpt lat="28.6683339" lon="105.6721003"><ele>292.98</ele><time>2025-12-17T20:15:22.000Z</time></trkpt>
        <trkpt lat="28.6683254" lon="105.6722102"><ele>292.3</ele><time>2025-12-17T20:15:32.000Z</time></trkpt>
        <trkpt lat="28.6683501" lon="105.6723198"><ele>292.08</ele><time>2025-12-17T20:15:42.000Z</time></trkpt>
        <trkpt lat="28.6683905" lon="105.672423"><ele>291.18</ele><time>2025-12-17T20:15:52.000Z</time></trkpt>
        <trkpt lat="28.6684326" lon="105.6725309"><ele>290.6</ele><time>2025-12-17T20:16:02.000Z</time></trkpt>
        <trkpt lat="28.6684697" lon="105.6726464"><ele>289.88</ele><time>2025-12-17T20:16:14.000Z</time></trkpt>
        <trkpt lat="28.668468" lon="105.6727595"><ele>289.42</ele><time>2025-12-17T20:16:26.000Z</time></trkpt>
        <trkpt lat="28.6684186" lon="105.6728565"><ele>290.18</ele><time>2025-12-17T20:16:40.000Z</time></trkpt>
        <trkpt lat="28.6683538" lon="105.6729501"><ele>291.34</ele><time>2025-12-17T20:16:52.000Z</time></trkpt>
        <trkpt lat="28.6682935" lon="105.6730499"><ele>292.69</ele><time>2025-12-17T20:17:02.000Z</time></trkpt>
        <trkpt lat="28.668229" lon="105.6731396"><ele>293.92</ele><time>2025-12-17T20:17:12.000Z</time></trkpt>
        <trkpt lat="28.6681653" lon="105.6732196"><ele>295.07</ele><time>2025-12-17T20:17:22.000Z</time></trkpt>
        <trkpt lat="28.6680933" lon="105.6732883"><ele>296.05</ele><time>2025-12-17T20:17:32.000Z</time></trkpt>
        <trkpt lat="28.6680148" lon="105.6733483"><ele>296.67</ele><time>2025-12-17T20:17:42.000Z</time></trkpt>
        <trkpt lat="28.6679303" lon="105.6733989"><ele>297.46</ele><time>2025-12-17T20:17:52.000Z</time></trkpt>
        <trkpt lat="28.6678631" lon="105.6734682"><ele>296.95</ele><time>2025-12-17T20:18:02.000Z</time></trkpt>
        <trkpt lat="28.667827" lon="105.6735672"><ele>296.3</ele><time>2025-12-17T20:18:12.000Z</time></trkpt>
        <trkpt lat="28.6677976" lon="105.6736722"><ele>295.64</ele><time>2025-12-17T20:18:22.000Z</time></trkpt>
        <trkpt lat="28.6677471" lon="105.6737579"><ele>295.09</ele><time>2025-12-17T20:18:32.000Z</time></trkpt>
        <trkpt lat="28.6676724" lon="105.6738142"><ele>295.51</ele><time>2025-12-17T20:18:44.000Z</time></trkpt>
        <trkpt lat="28.6675799" lon="105.6738475"><ele>296.68</ele><time>2025-12-17T20:18:56.000Z</time></trkpt>
        <trkpt lat="28.6674806" lon="105.6738359"><ele>297.72</ele><time>2025-12-17T20:19:06.000Z</time></trkpt>
        <trkpt lat="28.6674054" lon="105.6737569"><ele>298.09</ele><time>2025-12-17T20:19:16.000Z</time></trkpt>
        <trkpt lat="28.6673824" lon="105.6736308"><ele>297.95</ele><time>2025-12-17T20:19:26.000Z</time></trkpt>
        <trkpt lat="28.6673743" lon="105.6735"><ele>296.71</ele><time>2025-12-17T20:19:36.000Z</time></trkpt>
        <trkpt lat="28.6673499" lon="105.673384"><ele>296.05</ele><time>2025-12-17T20:19:46.000Z</time></trkpt>
        <trkpt lat="28.6672853" lon="105.6732945"><ele>295.48</ele><time>2025-12-17T20:19:58.000Z</time></trkpt>
        <trkpt lat="28.6672008" lon="105.6732447"><ele>296.53</ele><time>2025-12-17T20:20:10.000Z</time></trkpt>
        <trkpt lat="28.667107" lon="105.6731945"><ele>297.81</ele><time>2025-12-17T20:20:22.000Z</time></trkpt>
        <trkpt lat="28.667016" lon="105.6731426"><ele>299.58</ele><time>2025-12-17T20:20:34.000Z</time></trkpt>
        <trkpt lat="28.6669306" lon="105.6730888"><ele>301.07</ele><time>2025-12-17T20:20:46.000Z</time></trkpt>
        <trkpt lat="28.6668621" lon="105.6730195"><ele>302.91</ele><time>2025-12-17T20:20:56.000Z</time></trkpt>
        <trkpt lat="28.6668101" lon="105.672925"><ele>304.56</ele><time>2025-12-17T20:21:06.000Z</time></trkpt>
        <trkpt lat="28.6667746" lon="105.6728193"><ele>305.83</ele><time>2025-12-17T20:21:16.000Z</time></trkpt>
        <trkpt lat="28.66672" lon="105.6727154"><ele>306.1</ele><time>2025-12-17T20:21:28.000Z</time></trkpt>
        <trkpt lat="28.6666454" lon="105.6726434"><ele>306.5</ele><time>2025-12-17T20:21:38.000Z</time></trkpt>
        <trkpt lat="28.6665608" lon="105.6726014"><ele>306.9</ele><time>2025-12-17T20:21:48.000Z</time></trkpt>
        <trkpt lat="28.6664708" lon="105.6725782"><ele>307.01</ele><time>2025-12-17T20:22:00.000Z</time></trkpt>
        <trkpt lat="28.6664028" lon="105.6725536"><ele>307.71</ele><time>2025-12-17T20:22:13.000Z</time></trkpt>
        <trkpt lat="28.6663174" lon="105.6725417"><ele>308.31</ele><time>2025-12-17T20:22:34.000Z</time></trkpt>
        <trkpt lat="28.6662285" lon="105.6725157"><ele>310.08</ele><time>2025-12-17T20:22:54.000Z</time></trkpt>
        <trkpt lat="28.6663959" lon="105.6725319"><ele>312.3</ele><time>2025-12-17T20:24:44.000Z</time></trkpt>
        <trkpt lat="28.6665409" lon="105.6726053"><ele>310.74</ele><time>2025-12-17T20:25:02.000Z</time></trkpt>
        <trkpt lat="28.6665026" lon="105.6726757"><ele>307.65</ele><time>2025-12-17T20:25:18.000Z</time></trkpt>
        <trkpt lat="28.6664318" lon="105.6727443"><ele>305.54</ele><time>2025-12-17T20:25:28.000Z</time></trkpt>
        <trkpt lat="28.6663446" lon="105.6728118"><ele>303.17</ele><time>2025-12-17T20:25:40.000Z</time></trkpt>
        <trkpt lat="28.6662622" lon="105.6728796"><ele>301.12</ele><time>2025-12-17T20:25:50.000Z</time></trkpt>
        <trkpt lat="28.6661624" lon="105.6729263"><ele>299.3</ele><time>2025-12-17T20:26:08.000Z</time></trkpt>
        <trkpt lat="28.6660755" lon="105.672985"><ele>297.42</ele><time>2025-12-17T20:26:30.000Z</time></trkpt>
        <trkpt lat="28.6660009" lon="105.6730518"><ele>296.34</ele><time>2025-12-17T20:26:40.000Z</time></trkpt>
        <trkpt lat="28.665925" lon="105.6731195"><ele>295.51</ele><time>2025-12-17T20:26:50.000Z</time></trkpt>
        <trkpt lat="28.6658537" lon="105.6731882"><ele>294.57</ele><time>2025-12-17T20:27:00.000Z</time></trkpt>
        <trkpt lat="28.6657986" lon="105.6732732"><ele>293.85</ele><time>2025-12-17T20:27:10.000Z</time></trkpt>
        <trkpt lat="28.6657684" lon="105.6733799"><ele>293.59</ele><time>2025-12-17T20:27:22.000Z</time></trkpt>
        <trkpt lat="28.6657787" lon="105.6734934"><ele>293.56</ele><time>2025-12-17T20:27:34.000Z</time></trkpt>
        <trkpt lat="28.665814" lon="105.6736081"><ele>293.56</ele><time>2025-12-17T20:27:46.000Z</time></trkpt>
        <trkpt lat="28.6658622" lon="105.6737064"><ele>293.9</ele><time>2025-12-17T20:27:56.000Z</time></trkpt>
        <trkpt lat="28.665915" lon="105.6737964"><ele>294.33</ele><time>2025-12-17T20:28:06.000Z</time></trkpt>
        <trkpt lat="28.6659586" lon="105.6738929"><ele>295.02</ele><time>2025-12-17T20:28:18.000Z</time></trkpt>
        <trkpt lat="28.6659754" lon="105.6739995"><ele>296.13</ele><time>2025-12-17T20:28:30.000Z</time></trkpt>
        <trkpt lat="28.6659361" lon="105.6740973"><ele>297.4</ele><time>2025-12-17T20:28:44.000Z</time></trkpt>
        <trkpt lat="28.6658413" lon="105.6741182"><ele>299.74</ele><time>2025-12-17T20:28:58.000Z</time></trkpt>
        <trkpt lat="28.6657424" lon="105.6740646"><ele>302.22</ele><time>2025-12-17T20:29:10.000Z</time></trkpt>
        <trkpt lat="28.6656571" lon="105.6739913"><ele>303.53</ele><time>2025-12-17T20:29:20.000Z</time></trkpt>
        <trkpt lat="28.6655653" lon="105.6739506"><ele>304.39</ele><time>2025-12-17T20:29:30.000Z</time></trkpt>
        <trkpt lat="28.6654635" lon="105.6739308"><ele>304.88</ele><time>2025-12-17T20:29:42.000Z</time></trkpt>
        <trkpt lat="28.6655527" lon="105.6739248"><ele>304.08</ele><time>2025-12-17T20:32:08.000Z</time></trkpt>
        <trkpt lat="28.6656382" lon="105.6739568"><ele>303.45</ele><time>2025-12-17T20:32:22.000Z</time></trkpt>
        <trkpt lat="28.6657216" lon="105.6740011"><ele>305.31</ele><time>2025-12-17T20:32:34.000Z</time></trkpt>
        <trkpt lat="28.6657173" lon="105.6739314"><ele>306.81</ele><time>2025-12-17T20:33:18.000Z</time></trkpt>
        <trkpt lat="28.6656728" lon="105.6738319"><ele>308.21</ele><time>2025-12-17T20:33:32.000Z</time></trkpt>
        <trkpt lat="28.6656082" lon="105.6737323"><ele>310</ele><time>2025-12-17T20:33:44.000Z</time></trkpt>
        <trkpt lat="28.6655102" lon="105.6736738"><ele>312.07</ele><time>2025-12-17T20:34:08.000Z</time></trkpt>
        <trkpt lat="28.6654104" lon="105.6736399"><ele>314.2</ele><time>2025-12-17T20:34:30.000Z</time></trkpt>
        <trkpt lat="28.6653317" lon="105.6735747"><ele>315.31</ele><time>2025-12-17T20:34:46.000Z</time></trkpt>
        <trkpt lat="28.6652667" lon="105.6734896"><ele>314.84</ele><time>2025-12-17T20:35:04.000Z</time></trkpt>
        <trkpt lat="28.6652764" lon="105.6735386"><ele>316.4</ele><time>2025-12-17T20:35:24.000Z</time></trkpt>
        <trkpt lat="28.6652558" lon="105.6734901"><ele>316.61</ele><time>2025-12-17T20:35:44.000Z</time></trkpt>
        <trkpt lat="28.665232" lon="105.6733892"><ele>317.78</ele><time>2025-12-17T20:36:02.000Z</time></trkpt>
        <trkpt lat="28.6651986" lon="105.6732853"><ele>319.18</ele><time>2025-12-17T20:36:16.000Z</time></trkpt>
        <trkpt lat="28.6651446" lon="105.6731879"><ele>320.07</ele><time>2025-12-17T20:36:34.000Z</time></trkpt>
        <trkpt lat="28.6650992" lon="105.6730886"><ele>321.78</ele><time>2025-12-17T20:36:50.000Z</time></trkpt>
        <trkpt lat="28.6650302" lon="105.6730086"><ele>323.13</ele><time>2025-12-17T20:37:16.000Z</time></trkpt>
        <trkpt lat="28.6650011" lon="105.6729116"><ele>324.48</ele><time>2025-12-17T20:37:28.000Z</time></trkpt>
        <trkpt lat="28.6649647" lon="105.6728121"><ele>326.05</ele><time>2025-12-17T20:38:00.000Z</time></trkpt>
        <trkpt lat="28.6649136" lon="105.6727237"><ele>326.7</ele><time>2025-12-17T20:38:10.000Z</time></trkpt>
        <trkpt lat="28.6648649" lon="105.6726294"><ele>327.08</ele><time>2025-12-17T20:38:22.000Z</time></trkpt>
        <trkpt lat="28.6648067" lon="105.6725386"><ele>328.23</ele><time>2025-12-17T20:38:38.000Z</time></trkpt>
        <trkpt lat="28.6647751" lon="105.6724335"><ele>330.7</ele><time>2025-12-17T20:38:50.000Z</time></trkpt>
        <trkpt lat="28.6647173" lon="105.672347"><ele>332.93</ele><time>2025-12-17T20:39:12.000Z</time></trkpt>
        <trkpt lat="28.6646332" lon="105.6723592"><ele>335.4</ele><time>2025-12-17T20:39:32.000Z</time></trkpt>
        <trkpt lat="28.6645958" lon="105.67229"><ele>338.09</ele><time>2025-12-17T20:42:42.000Z</time></trkpt>
        <trkpt lat="28.6645348" lon="105.6722099"><ele>339.91</ele><time>2025-12-17T20:43:08.000Z</time></trkpt>
        <trkpt lat="28.6644895" lon="105.6721195"><ele>343.99</ele><time>2025-12-17T20:43:28.000Z</time></trkpt>
        <trkpt lat="28.6644492" lon="105.6720231"><ele>349.76</ele><time>2025-12-17T20:43:46.000Z</time></trkpt>
        <trkpt lat="28.6644089" lon="105.6719264"><ele>355.79</ele><time>2025-12-17T20:44:04.000Z</time></trkpt>
        <trkpt lat="28.664354" lon="105.6718439"><ele>358.62</ele><time>2025-12-17T20:44:22.000Z</time></trkpt>
        <trkpt lat="28.6643217" lon="105.6717497"><ele>359.03</ele><time>2025-12-17T20:44:44.000Z</time></trkpt>
        <trkpt lat="28.6643035" lon="105.6716415"><ele>359.45</ele><time>2025-12-17T20:45:00.000Z</time></trkpt>
        <trkpt lat="28.6642562" lon="105.6715466"><ele>361.58</ele><time>2025-12-17T20:45:46.000Z</time></trkpt>
        <trkpt lat="28.6642157" lon="105.6714503"><ele>365.27</ele><time>2025-12-17T20:46:28.000Z</time></trkpt>
        <trkpt lat="28.6642098" lon="105.6713415"><ele>369.94</ele><time>2025-12-17T20:46:44.000Z</time></trkpt>
        <trkpt lat="28.6642201" lon="105.6712335"><ele>373.21</ele><time>2025-12-17T20:47:10.000Z</time></trkpt>
        <trkpt lat="28.6642215" lon="105.6711242"><ele>375.28</ele><time>2025-12-17T20:50:04.000Z</time></trkpt>
        <trkpt lat="28.6642177" lon="105.6710205"><ele>377.45</ele><time>2025-12-17T20:50:30.000Z</time></trkpt>
        <trkpt lat="28.6641943" lon="105.6709189"><ele>380.82</ele><time>2025-12-17T20:51:58.000Z</time></trkpt>
        <trkpt lat="28.664169" lon="105.6708146"><ele>386.35</ele><time>2025-12-17T20:52:56.000Z</time></trkpt>
        <trkpt lat="28.6641253" lon="105.6707048"><ele>392.34</ele><time>2025-12-17T20:53:10.000Z</time></trkpt>
        <trkpt lat="28.6640359" lon="105.6705688"><ele>396.52</ele><time>2025-12-17T20:53:51.000Z</time></trkpt>
        <trkpt lat="28.6639908" lon="105.6704512"><ele>399.13</ele><time>2025-12-17T20:54:19.000Z</time></trkpt>
        <trkpt lat="28.6635212" lon="105.6691762"><ele>401.49</ele><time>2025-12-17T20:59:37.000Z</time></trkpt>
        <trkpt lat="28.6632894" lon="105.6684863"><ele>417.32</ele><time>2025-12-17T21:02:40.000Z</time></trkpt>
        <trkpt lat="28.6631963" lon="105.6684483"><ele>436.25</ele><time>2025-12-17T21:02:52.000Z</time></trkpt>
        <trkpt lat="28.663194" lon="105.6683494"><ele>446.94</ele><time>2025-12-17T21:03:18.000Z</time></trkpt>
        <trkpt lat="28.6632152" lon="105.6682463"><ele>455.03</ele><time>2025-12-17T21:04:06.000Z</time></trkpt>
        <trkpt lat="28.6631597" lon="105.6682016"><ele>460.39</ele><time>2025-12-17T21:04:36.000Z</time></trkpt>
        <trkpt lat="28.6630723" lon="105.6681778"><ele>467.98</ele><time>2025-12-17T21:05:18.000Z</time></trkpt>
        <trkpt lat="28.6630156" lon="105.6681027"><ele>474.33</ele><time>2025-12-17T21:06:06.000Z</time></trkpt>
        <trkpt lat="28.6629874" lon="105.6680623"><ele>479.69</ele><time>2025-12-17T21:06:18.000Z</time></trkpt>
        <trkpt lat="28.6629335" lon="105.6679972"><ele>483.9</ele><time>2025-12-17T21:07:04.000Z</time></trkpt>
        <trkpt lat="28.662899" lon="105.6679026"><ele>489.55</ele><time>2025-12-17T21:07:52.000Z</time></trkpt>
        <trkpt lat="28.6628217" lon="105.6678533"><ele>493.86</ele><time>2025-12-17T21:08:38.000Z</time></trkpt>
        <trkpt lat="28.6627528" lon="105.6677784"><ele>499.05</ele><time>2025-12-17T21:09:54.000Z</time></trkpt>
        <trkpt lat="28.6626996" lon="105.6676941"><ele>505.52</ele><time>2025-12-17T21:10:16.000Z</time></trkpt>
        <trkpt lat="28.662653" lon="105.6675998"><ele>510.59</ele><time>2025-12-17T21:10:58.000Z</time></trkpt>
        <trkpt lat="28.6626236" lon="105.6674972"><ele>516.51</ele><time>2025-12-17T21:13:18.000Z</time></trkpt>
        <trkpt lat="28.6625619" lon="105.6674159"><ele>521.41</ele><time>2025-12-17T21:14:20.000Z</time></trkpt>
        <trkpt lat="28.6625027" lon="105.6673357"><ele>527.81</ele><time>2025-12-17T21:16:04.000Z</time></trkpt>
        <trkpt lat="28.662256" lon="105.6671457"><ele>532.95</ele><time>2025-12-17T21:22:08.000Z</time></trkpt>
        <trkpt lat="28.6621594" lon="105.6671286"><ele>545.73</ele><time>2025-12-17T21:23:41.000Z</time></trkpt>
        <trkpt lat="28.6620294" lon="105.667061"><ele>554.97</ele><time>2025-12-17T21:25:00.000Z</time></trkpt>
        <trkpt lat="28.6619472" lon="105.666801"><ele>565.43</ele><time>2025-12-17T21:30:42.000Z</time></trkpt>
        <trkpt lat="28.6618727" lon="105.6667079"><ele>572.37</ele><time>2025-12-17T21:32:32.000Z</time></trkpt>
        <trkpt lat="28.6617461" lon="105.6666087"><ele>578.5</ele><time>2025-12-17T21:33:28.000Z</time></trkpt>
        <trkpt lat="28.661655" lon="105.6665672"><ele>586.12</ele><time>2025-12-17T21:34:32.000Z</time></trkpt>
        <trkpt lat="28.6614903" lon="105.6663829"><ele>591.62</ele><time>2025-12-17T21:44:29.000Z</time></trkpt>
        <trkpt lat="28.6613743" lon="105.6663621"><ele>602.3</ele><time>2025-12-17T21:45:09.000Z</time></trkpt>
        <trkpt lat="28.6612975" lon="105.6663028"><ele>611.69</ele><time>2025-12-17T21:45:43.000Z</time></trkpt>
        <trkpt lat="28.661256" lon="105.6662106"><ele>620.26</ele><time>2025-12-17T21:46:31.000Z</time></trkpt>
        <trkpt lat="28.6612264" lon="105.6661111"><ele>625.75</ele><time>2025-12-17T21:47:01.000Z</time></trkpt>
        <trkpt lat="28.6612786" lon="105.6660246"><ele>630.75</ele><time>2025-12-17T21:47:41.000Z</time></trkpt>
        <trkpt lat="28.6613277" lon="105.6659243"><ele>635.4</ele><time>2025-12-17T21:48:07.000Z</time></trkpt>
        <trkpt lat="28.6613784" lon="105.6658249"><ele>638.87</ele><time>2025-12-17T21:48:25.000Z</time></trkpt>
        <trkpt lat="28.6613446" lon="105.6658528"><ele>642.09</ele><time>2025-12-17T21:48:57.000Z</time></trkpt>
        <trkpt lat="28.6612584" lon="105.6659284"><ele>645.41</ele><time>2025-12-17T21:49:07.000Z</time></trkpt>
        <trkpt lat="28.6612144" lon="105.6659695"><ele>647.81</ele><time>2025-12-17T21:49:15.000Z</time></trkpt>
        <trkpt lat="28.6611521" lon="105.6660365"><ele>650.38</ele><time>2025-12-17T21:49:47.000Z</time></trkpt>
        <trkpt lat="28.6610766" lon="105.666099"><ele>653.92</ele><time>2025-12-17T21:50:11.000Z</time></trkpt>
        <trkpt lat="28.6609956" lon="105.666164"><ele>656.86</ele><time>2025-12-17T21:50:55.000Z</time></trkpt>
        <trkpt lat="28.660907" lon="105.6662106"><ele>661.37</ele><time>2025-12-17T21:51:15.000Z</time></trkpt>
        <trkpt lat="28.6608676" lon="105.6661112"><ele>665.13</ele><time>2025-12-17T21:53:05.000Z</time></trkpt>
        <trkpt lat="28.6608942" lon="105.6660027"><ele>669.6</ele><time>2025-12-17T21:53:29.000Z</time></trkpt>
        <trkpt lat="28.6608702" lon="105.665903"><ele>673.64</ele><time>2025-12-17T21:53:47.000Z</time></trkpt>
        <trkpt lat="28.6608575" lon="105.6658004"><ele>676.97</ele><time>2025-12-17T21:54:15.000Z</time></trkpt>
        <trkpt lat="28.6607369" lon="105.6658837"><ele>680.01</ele><time>2025-12-17T21:55:58.000Z</time></trkpt>
        <trkpt lat="28.6604605" lon="105.6660185"><ele>686.11</ele><time>2025-12-17T21:59:24.000Z</time></trkpt>
        <trkpt lat="28.6603765" lon="105.666087"><ele>698.19</ele><time>2025-12-17T22:01:03.000Z</time></trkpt>
        <trkpt lat="28.6603958" lon="105.6659256"><ele>707.41</ele><time>2025-12-17T22:03:02.000Z</time></trkpt>
        <trkpt lat="28.6603818" lon="105.6658165"><ele>714.62</ele><time>2025-12-17T22:03:56.000Z</time></trkpt>
        <trkpt lat="28.6604373" lon="105.6657379"><ele>719.16</ele><time>2025-12-17T22:04:34.000Z</time></trkpt>
        <trkpt lat="28.6605157" lon="105.6656707"><ele>721.56</ele><time>2025-12-17T22:05:12.000Z</time></trkpt>
        <trkpt lat="28.660591" lon="105.6655941"><ele>724.98</ele><time>2025-12-17T22:05:26.000Z</time></trkpt>
        <trkpt lat="28.660666" lon="105.6655252"><ele>726.5</ele><time>2025-12-17T22:05:40.000Z</time></trkpt>
        <trkpt lat="28.6607356" lon="105.6654463"><ele>728.2</ele><time>2025-12-17T22:05:56.000Z</time></trkpt>
        <trkpt lat="28.6608265" lon="105.6653953"><ele>730.99</ele><time>2025-12-17T22:06:10.000Z</time></trkpt>
        <trkpt lat="28.6609065" lon="105.6653245"><ele>732.1</ele><time>2025-12-17T22:06:24.000Z</time></trkpt>
        <trkpt lat="28.6609642" lon="105.6652361"><ele>732.18</ele><time>2025-12-17T22:06:38.000Z</time></trkpt>
        <trkpt lat="28.6609759" lon="105.6651131"><ele>732.74</ele><time>2025-12-17T22:06:48.000Z</time></trkpt>
        <trkpt lat="28.6609868" lon="105.6649824"><ele>734.08</ele><time>2025-12-17T22:06:56.000Z</time></trkpt>
        <trkpt lat="28.6610036" lon="105.6648668"><ele>736.12</ele><time>2025-12-17T22:07:06.000Z</time></trkpt>
        <trkpt lat="28.6610467" lon="105.6647609"><ele>738.33</ele><time>2025-12-17T22:07:16.000Z</time></trkpt>
        <trkpt lat="28.6611097" lon="105.6646752"><ele>739.74</ele><time>2025-12-17T22:07:26.000Z</time></trkpt>
        <trkpt lat="28.6611899" lon="105.6646108"><ele>740.43</ele><time>2025-12-17T22:07:38.000Z</time></trkpt>
        <trkpt lat="28.661284" lon="105.6645749"><ele>740.81</ele><time>2025-12-17T22:08:14.000Z</time></trkpt>
        <trkpt lat="28.6613828" lon="105.6645841"><ele>740.94</ele><time>2025-12-17T22:08:26.000Z</time></trkpt>
        <trkpt lat="28.6614781" lon="105.6646174"><ele>741.16</ele><time>2025-12-17T22:08:40.000Z</time></trkpt>
        <trkpt lat="28.6619802" lon="105.6644508"><ele>739.58</ele><time>2025-12-17T22:09:47.000Z</time></trkpt>
        <trkpt lat="28.6620819" lon="105.6643739"><ele>741.24</ele><time>2025-12-17T22:10:00.000Z</time></trkpt>
        <trkpt lat="28.6621293" lon="105.6642692"><ele>741.86</ele><time>2025-12-17T22:10:12.000Z</time></trkpt>
        <trkpt lat="28.6621544" lon="105.6641613"><ele>742.49</ele><time>2025-12-17T22:10:22.000Z</time></trkpt>
        <trkpt lat="28.6621556" lon="105.6640559"><ele>743.58</ele><time>2025-12-17T22:10:34.000Z</time></trkpt>
        <trkpt lat="28.6621679" lon="105.6639486"><ele>745.21</ele><time>2025-12-17T22:10:46.000Z</time></trkpt>
        <trkpt lat="28.6622176" lon="105.6638561"><ele>745.78</ele><time>2025-12-17T22:10:58.000Z</time></trkpt>
        <trkpt lat="28.6622963" lon="105.6637828"><ele>746.61</ele><time>2025-12-17T22:11:10.000Z</time></trkpt>
        <trkpt lat="28.6623919" lon="105.663731"><ele>748.31</ele><time>2025-12-17T22:11:22.000Z</time></trkpt>
        <trkpt lat="28.6624887" lon="105.6637001"><ele>748.93</ele><time>2025-12-17T22:12:04.000Z</time></trkpt>
        <trkpt lat="28.6629381" lon="105.6635184"><ele>750.09</ele><time>2025-12-17T22:14:25.000Z</time></trkpt>
        <trkpt lat="28.6629797" lon="105.6631983"><ele>748.21</ele><time>2025-12-17T22:16:41.000Z</time></trkpt>
        <trkpt lat="28.6630379" lon="105.6630826"><ele>748.84</ele><time>2025-12-17T22:19:15.000Z</time></trkpt>
        <trkpt lat="28.6633025" lon="105.6627034"><ele>751.86</ele><time>2025-12-17T22:21:04.000Z</time></trkpt>
        <trkpt lat="28.6633904" lon="105.6626562"><ele>755.95</ele><time>2025-12-17T22:21:34.000Z</time></trkpt>
        <trkpt lat="28.6634752" lon="105.6626103"><ele>757.68</ele><time>2025-12-17T22:21:45.000Z</time></trkpt>
        <trkpt lat="28.66356" lon="105.662568"><ele>758.14</ele><time>2025-12-17T22:21:55.000Z</time></trkpt>
        <trkpt lat="28.6636545" lon="105.6625225"><ele>757.54</ele><time>2025-12-17T22:22:07.000Z</time></trkpt>
        <trkpt lat="28.6637453" lon="105.6624748"><ele>756.19</ele><time>2025-12-17T22:22:17.000Z</time></trkpt>
        <trkpt lat="28.6638315" lon="105.6624186"><ele>754.54</ele><time>2025-12-17T22:22:29.000Z</time></trkpt>
        <trkpt lat="28.6638597" lon="105.6624076"><ele>753.75</ele><time>2025-12-17T22:22:33.000Z</time></trkpt>
        <trkpt lat="28.6639145" lon="105.6623624"><ele>753.7</ele><time>2025-12-17T22:22:43.000Z</time></trkpt>
        <trkpt lat="28.6639878" lon="105.6623113"><ele>754.54</ele><time>2025-12-17T22:22:53.000Z</time></trkpt>
        <trkpt lat="28.6640687" lon="105.6622592"><ele>755.51</ele><time>2025-12-17T22:23:05.000Z</time></trkpt>
        <trkpt lat="28.6641331" lon="105.6621845"><ele>756.31</ele><time>2025-12-17T22:23:51.000Z</time></trkpt>
        <trkpt lat="28.6642146" lon="105.6621214"><ele>757.71</ele><time>2025-12-17T22:24:21.000Z</time></trkpt>
        <trkpt lat="28.6642943" lon="105.6620581"><ele>758.78</ele><time>2025-12-17T22:24:31.000Z</time></trkpt>
        <trkpt lat="28.6643447" lon="105.6620585"><ele>759.19</ele><time>2025-12-17T22:24:43.000Z</time></trkpt>
        <trkpt lat="28.6646522" lon="105.6617668"><ele>758.1</ele><time>2025-12-17T22:28:08.000Z</time></trkpt>
        <trkpt lat="28.6647255" lon="105.6616874"><ele>760.61</ele><time>2025-12-17T22:28:23.000Z</time></trkpt>
        <trkpt lat="28.6648163" lon="105.6615951"><ele>763.14</ele><time>2025-12-17T22:28:41.000Z</time></trkpt>
        <trkpt lat="28.6648559" lon="105.6614971"><ele>765.65</ele><time>2025-12-17T22:28:50.000Z</time></trkpt>
        <trkpt lat="28.6648542" lon="105.6613844"><ele>767.39</ele><time>2025-12-17T22:29:08.000Z</time></trkpt>
        <trkpt lat="28.6648481" lon="105.6612705"><ele>766.66</ele><time>2025-12-17T22:29:24.000Z</time></trkpt>
        <trkpt lat="28.6648468" lon="105.6611575"><ele>764.5</ele><time>2025-12-17T22:29:38.000Z</time></trkpt>
        <trkpt lat="28.6648515" lon="105.6610396"><ele>761.68</ele><time>2025-12-17T22:30:24.000Z</time></trkpt>
        <trkpt lat="28.6648782" lon="105.6604661"><ele>758.34</ele><time>2025-12-17T22:32:41.000Z</time></trkpt>
        <trkpt lat="28.6649292" lon="105.6603517"><ele>765.54</ele><time>2025-12-17T22:33:19.000Z</time></trkpt>
        <trkpt lat="28.6649877" lon="105.6602658"><ele>766.66</ele><time>2025-12-17T22:33:45.000Z</time></trkpt>
        <trkpt lat="28.6650442" lon="105.6601787"><ele>764.04</ele><time>2025-12-17T22:34:05.000Z</time></trkpt>
        <trkpt lat="28.6650961" lon="105.6600884"><ele>761.86</ele><time>2025-12-17T22:34:19.000Z</time></trkpt>
        <trkpt lat="28.6651324" lon="105.659994"><ele>759.9</ele><time>2025-12-17T22:34:35.000Z</time></trkpt>
        <trkpt lat="28.6651684" lon="105.6598936"><ele>758.6</ele><time>2025-12-17T22:34:49.000Z</time></trkpt>
        <trkpt lat="28.6651928" lon="105.6597903"><ele>758.33</ele><time>2025-12-17T22:35:43.000Z</time></trkpt>
        <trkpt lat="28.6651918" lon="105.6596812"><ele>757.72</ele><time>2025-12-17T22:35:59.000Z</time></trkpt>
        <trkpt lat="28.6651777" lon="105.6595691"><ele>759.09</ele><time>2025-12-17T22:36:15.000Z</time></trkpt>
        <trkpt lat="28.6651566" lon="105.6594578"><ele>760.04</ele><time>2025-12-17T22:36:33.000Z</time></trkpt>
        <trkpt lat="28.665112" lon="105.65951"><ele>760.17</ele><time>2025-12-17T22:37:09.000Z</time></trkpt>
        <trkpt lat="28.665156" lon="105.659582"><ele>759.06</ele><time>2025-12-17T22:37:21.000Z</time></trkpt>
        <trkpt lat="28.6651045" lon="105.6595751"><ele>758.75</ele><time>2025-12-17T22:37:53.000Z</time></trkpt>
        <trkpt lat="28.6650715" lon="105.6594927"><ele>758.78</ele><time>2025-12-17T22:38:07.000Z</time></trkpt>
        <trkpt lat="28.6651823" lon="105.6595409"><ele>759.85</ele><time>2025-12-17T22:40:35.000Z</time></trkpt>
        <trkpt lat="28.6654188" lon="105.6583188"><ele>759.23</ele><time>2025-12-17T22:44:26.000Z</time></trkpt>
        <trkpt lat="28.6656055" lon="105.6580018"><ele>767.52</ele><time>2025-12-17T22:45:11.000Z</time></trkpt>
        <trkpt lat="28.6656912" lon="105.6578767"><ele>768.59</ele><time>2025-12-17T22:45:25.000Z</time></trkpt>
        <trkpt lat="28.665772" lon="105.6578088"><ele>768.16</ele><time>2025-12-17T22:45:37.000Z</time></trkpt>
        <trkpt lat="28.665842" lon="105.6577392"><ele>766.75</ele><time>2025-12-17T22:45:49.000Z</time></trkpt>
        <trkpt lat="28.6658965" lon="105.6576556"><ele>765.81</ele><time>2025-12-17T22:45:59.000Z</time></trkpt>
        <trkpt lat="28.6659204" lon="105.6575623"><ele>764.71</ele><time>2025-12-17T22:46:11.000Z</time></trkpt>
        <trkpt lat="28.6659085" lon="105.6574887"><ele>762.81</ele><time>2025-12-17T22:46:33.000Z</time></trkpt>
        <trkpt lat="28.6658214" lon="105.657496"><ele>760.71</ele><time>2025-12-17T22:47:05.000Z</time></trkpt>
        <trkpt lat="28.6657143" lon="105.6575317"><ele>759.28</ele><time>2025-12-17T22:47:19.000Z</time></trkpt>
        <trkpt lat="28.6656092" lon="105.6575749"><ele>757.55</ele><time>2025-12-17T22:47:35.000Z</time></trkpt>
        <trkpt lat="28.6655162" lon="105.6576215"><ele>756.14</ele><time>2025-12-17T22:47:47.000Z</time></trkpt>
        <trkpt lat="28.665415" lon="105.6576064"><ele>755.04</ele><time>2025-12-17T22:47:59.000Z</time></trkpt>
        <trkpt lat="28.6654133" lon="105.6576772"><ele>755.17</ele><time>2025-12-17T22:48:21.000Z</time></trkpt>
        <trkpt lat="28.6653946" lon="105.6577788"><ele>754.02</ele><time>2025-12-17T22:48:31.000Z</time></trkpt>
        <trkpt lat="28.6653479" lon="105.6578885"><ele>753.29</ele><time>2025-12-17T22:48:41.000Z</time></trkpt>
        <trkpt lat="28.6652739" lon="105.6579622"><ele>752.95</ele><time>2025-12-17T22:48:49.000Z</time></trkpt>
        <trkpt lat="28.6651829" lon="105.6580175"><ele>752.73</ele><time>2025-12-17T22:48:57.000Z</time></trkpt>
        <trkpt lat="28.6650911" lon="105.6580567"><ele>751.91</ele><time>2025-12-17T22:49:05.000Z</time></trkpt>
        <trkpt lat="28.6649976" lon="105.6580785"><ele>750.46</ele><time>2025-12-17T22:49:13.000Z</time></trkpt>
        <trkpt lat="28.6648936" lon="105.6580651"><ele>749.51</ele><time>2025-12-17T22:49:23.000Z</time></trkpt>
        <trkpt lat="28.6647935" lon="105.6580917"><ele>749.64</ele><time>2025-12-17T22:49:33.000Z</time></trkpt>
        <trkpt lat="28.6647347" lon="105.6581669"><ele>749.35</ele><time>2025-12-17T22:49:41.000Z</time></trkpt>
        <trkpt lat="28.6646802" lon="105.6582668"><ele>748.63</ele><time>2025-12-17T22:49:49.000Z</time></trkpt>
        <trkpt lat="28.6646124" lon="105.6583509"><ele>746.76</ele><time>2025-12-17T22:49:57.000Z</time></trkpt>
        <trkpt lat="28.6645326" lon="105.6584275"><ele>744.3</ele><time>2025-12-17T22:50:07.000Z</time></trkpt>
        <trkpt lat="28.664447" lon="105.6585007"><ele>742.07</ele><time>2025-12-17T22:50:17.000Z</time></trkpt>
        <trkpt lat="28.6643535" lon="105.6585458"><ele>740.52</ele><time>2025-12-17T22:50:27.000Z</time></trkpt>
        <trkpt lat="28.6642548" lon="105.6585422"><ele>740.6</ele><time>2025-12-17T22:50:35.000Z</time></trkpt>
        <trkpt lat="28.6641449" lon="105.6584973"><ele>741.85</ele><time>2025-12-17T22:50:45.000Z</time></trkpt>
        <trkpt lat="28.664045" lon="105.6584436"><ele>742.98</ele><time>2025-12-17T22:50:55.000Z</time></trkpt>
        <trkpt lat="28.6640552" lon="105.6583509"><ele>741.79</ele><time>2025-12-17T22:51:27.000Z</time></trkpt>
        <trkpt lat="28.6640964" lon="105.6582408"><ele>738.59</ele><time>2025-12-17T22:51:39.000Z</time></trkpt>
        <trkpt lat="28.6641315" lon="105.6581255"><ele>736.15</ele><time>2025-12-17T22:51:49.000Z</time></trkpt>
        <trkpt lat="28.6641273" lon="105.6580148"><ele>734.56</ele><time>2025-12-17T22:52:03.000Z</time></trkpt>
        <trkpt lat="28.6640491" lon="105.6579728"><ele>734.83</ele><time>2025-12-17T22:52:19.000Z</time></trkpt>
        <trkpt lat="28.6639501" lon="105.6579512"><ele>735.78</ele><time>2025-12-17T22:52:31.000Z</time></trkpt>
        <trkpt lat="28.6638466" lon="105.6579244"><ele>736.9</ele><time>2025-12-17T22:52:59.000Z</time></trkpt>
        <trkpt lat="28.6637499" lon="105.6579011"><ele>739.12</ele><time>2025-12-17T22:53:13.000Z</time></trkpt>
        <trkpt lat="28.6636624" lon="105.6578603"><ele>741.06</ele><time>2025-12-17T22:53:27.000Z</time></trkpt>
        <trkpt lat="28.6635811" lon="105.6577914"><ele>741.75</ele><time>2025-12-17T22:53:41.000Z</time></trkpt>
        <trkpt lat="28.6635072" lon="105.6577176"><ele>740.91</ele><time>2025-12-17T22:53:57.000Z</time></trkpt>
        <trkpt lat="28.6634221" lon="105.6576886"><ele>735.68</ele><time>2025-12-17T22:54:09.000Z</time></trkpt>
        <trkpt lat="28.6633303" lon="105.6576266"><ele>730.59</ele><time>2025-12-17T22:54:19.000Z</time></trkpt>
        <trkpt lat="28.6632462" lon="105.6575509"><ele>726.33</ele><time>2025-12-17T22:54:29.000Z</time></trkpt>
        <trkpt lat="28.6631674" lon="105.657468"><ele>723.76</ele><time>2025-12-17T22:54:41.000Z</time></trkpt>
        <trkpt lat="28.6630927" lon="105.6573908"><ele>722.15</ele><time>2025-12-17T22:54:53.000Z</time></trkpt>
        <trkpt lat="28.6630227" lon="105.6573066"><ele>720.47</ele><time>2025-12-17T22:55:07.000Z</time></trkpt>
        <trkpt lat="28.6629918" lon="105.6572088"><ele>719.2</ele><time>2025-12-17T22:55:17.000Z</time></trkpt>
        <trkpt lat="28.663023" lon="105.6572497"><ele>718.43</ele><time>2025-12-17T22:55:59.000Z</time></trkpt>
        <trkpt lat="28.6630643" lon="105.6573471"><ele>716.51</ele><time>2025-12-17T22:56:09.000Z</time></trkpt>
        <trkpt lat="28.6630516" lon="105.6572735"><ele>714.26</ele><time>2025-12-17T22:57:49.000Z</time></trkpt>
        <trkpt lat="28.6630183" lon="105.6571783"><ele>712.9</ele><time>2025-12-17T22:58:01.000Z</time></trkpt>
        <trkpt lat="28.6629392" lon="105.6571277"><ele>712.49</ele><time>2025-12-17T22:58:39.000Z</time></trkpt>
        <trkpt lat="28.6628775" lon="105.6570521"><ele>710.62</ele><time>2025-12-17T22:58:57.000Z</time></trkpt>
        <trkpt lat="28.6627992" lon="105.6569952"><ele>707.51</ele><time>2025-12-17T22:59:17.000Z</time></trkpt>
        <trkpt lat="28.6627012" lon="105.6569915"><ele>704.14</ele><time>2025-12-17T22:59:49.000Z</time></trkpt>
        <trkpt lat="28.6626007" lon="105.6570326"><ele>701.98</ele><time>2025-12-17T23:00:01.000Z</time></trkpt>
        <trkpt lat="28.6624979" lon="105.6570751"><ele>700.47</ele><time>2025-12-17T23:00:13.000Z</time></trkpt>
        <trkpt lat="28.6623998" lon="105.6570834"><ele>700.06</ele><time>2025-12-17T23:00:29.000Z</time></trkpt>
        <trkpt lat="28.6623007" lon="105.6570811"><ele>698.24</ele><time>2025-12-17T23:00:39.000Z</time></trkpt>
        <trkpt lat="28.6622013" lon="105.65706"><ele>696.97</ele><time>2025-12-17T23:00:49.000Z</time></trkpt>
        <trkpt lat="28.6621223" lon="105.6570449"><ele>695.28</ele><time>2025-12-17T23:00:57.000Z</time></trkpt>
        <trkpt lat="28.6620293" lon="105.6570199"><ele>694.21</ele><time>2025-12-17T23:01:09.000Z</time></trkpt>
        <trkpt lat="28.6619322" lon="105.656971"><ele>692.34</ele><time>2025-12-17T23:01:19.000Z</time></trkpt>
        <trkpt lat="28.6618597" lon="105.6569471"><ele>691.09</ele><time>2025-12-17T23:01:27.000Z</time></trkpt>
        <trkpt lat="28.6617892" lon="105.6568885"><ele>689.5</ele><time>2025-12-17T23:02:07.000Z</time></trkpt>
        <trkpt lat="28.6617084" lon="105.6568987"><ele>688.12</ele><time>2025-12-17T23:02:47.000Z</time></trkpt>
        <trkpt lat="28.6616206" lon="105.6569242"><ele>686.5</ele><time>2025-12-17T23:03:01.000Z</time></trkpt>
        <trkpt lat="28.6615228" lon="105.6569502"><ele>685.47</ele><time>2025-12-17T23:03:27.000Z</time></trkpt>
        <trkpt lat="28.6614949" lon="105.6569568"><ele>686.22</ele><time>2025-12-17T23:03:29.000Z</time></trkpt>
        <trkpt lat="28.6615442" lon="105.6568567"><ele>686.38</ele><time>2025-12-17T23:05:55.000Z</time></trkpt>
        <trkpt lat="28.6615323" lon="105.656971"><ele>685.31</ele><time>2025-12-17T23:07:11.000Z</time></trkpt>
        <trkpt lat="28.661131" lon="105.65706"><ele>686.71</ele><time>2025-12-17T23:09:00.000Z</time></trkpt>
        <trkpt lat="28.6610388" lon="105.6570389"><ele>689.31</ele><time>2025-12-17T23:09:20.000Z</time></trkpt>
        <trkpt lat="28.6609639" lon="105.6569736"><ele>688.67</ele><time>2025-12-17T23:09:30.000Z</time></trkpt>
        <trkpt lat="28.6608907" lon="105.6569031"><ele>689.38</ele><time>2025-12-17T23:09:46.000Z</time></trkpt>
        <trkpt lat="28.6608035" lon="105.6568792"><ele>688.68</ele><time>2025-12-17T23:09:56.000Z</time></trkpt>
        <trkpt lat="28.6607204" lon="105.6569205"><ele>687.04</ele><time>2025-12-17T23:10:40.000Z</time></trkpt>
        <trkpt lat="28.6606238" lon="105.6569402"><ele>687.72</ele><time>2025-12-17T23:10:50.000Z</time></trkpt>
        <trkpt lat="28.6606233" lon="105.656932"><ele>688.13</ele><time>2025-12-17T23:10:52.000Z</time></trkpt>
        <trkpt lat="28.6605622" lon="105.6569708"><ele>688.59</ele><time>2025-12-17T23:11:04.000Z</time></trkpt>
        <trkpt lat="28.6604724" lon="105.6569907"><ele>689.52</ele><time>2025-12-17T23:11:14.000Z</time></trkpt>
        <trkpt lat="28.660377" lon="105.6570121"><ele>691.68</ele><time>2025-12-17T23:11:26.000Z</time></trkpt>
        <trkpt lat="28.6602849" lon="105.6570469"><ele>693.43</ele><time>2025-12-17T23:11:36.000Z</time></trkpt>
        <trkpt lat="28.6601846" lon="105.6570786"><ele>693.72</ele><time>2025-12-17T23:11:48.000Z</time></trkpt>
        <trkpt lat="28.6600874" lon="105.6570805"><ele>693.05</ele><time>2025-12-17T23:11:58.000Z</time></trkpt>
        <trkpt lat="28.6599789" lon="105.6570462"><ele>692.6</ele><time>2025-12-17T23:12:08.000Z</time></trkpt>
        <trkpt lat="28.6598831" lon="105.6570069"><ele>690.64</ele><time>2025-12-17T23:12:16.000Z</time></trkpt>
        <trkpt lat="28.6597917" lon="105.6569981"><ele>688.34</ele><time>2025-12-17T23:12:24.000Z</time></trkpt>
        <trkpt lat="28.6596952" lon="105.6569986"><ele>685.86</ele><time>2025-12-17T23:12:34.000Z</time></trkpt>
        <trkpt lat="28.6596057" lon="105.6569773"><ele>684.04</ele><time>2025-12-17T23:12:50.000Z</time></trkpt>
        <trkpt lat="28.6595279" lon="105.6569234"><ele>681.87</ele><time>2025-12-17T23:12:58.000Z</time></trkpt>
        <trkpt lat="28.6594916" lon="105.6568729"><ele>679.54</ele><time>2025-12-17T23:13:04.000Z</time></trkpt>
        <trkpt lat="28.6594219" lon="105.6568432"><ele>677.98</ele><time>2025-12-17T23:13:24.000Z</time></trkpt>
        <trkpt lat="28.6593951" lon="105.6568344"><ele>677.54</ele><time>2025-12-17T23:13:26.000Z</time></trkpt>
        <trkpt lat="28.6593366" lon="105.6567895"><ele>677.12</ele><time>2025-12-17T23:13:54.000Z</time></trkpt>
        <trkpt lat="28.6592475" lon="105.6567402"><ele>676.26</ele><time>2025-12-17T23:15:24.000Z</time></trkpt>
        <trkpt lat="28.6591975" lon="105.6566969"><ele>673.16</ele><time>2025-12-17T23:15:34.000Z</time></trkpt>
        <trkpt lat="28.6591249" lon="105.6566451"><ele>670.91</ele><time>2025-12-17T23:16:10.000Z</time></trkpt>
        <trkpt lat="28.659038" lon="105.6565803"><ele>668.74</ele><time>2025-12-17T23:16:26.000Z</time></trkpt>
        <trkpt lat="28.6589788" lon="105.6564865"><ele>665.26</ele><time>2025-12-17T23:16:36.000Z</time></trkpt>
        <trkpt lat="28.6589283" lon="105.6563943"><ele>663.72</ele><time>2025-12-17T23:16:46.000Z</time></trkpt>
        <trkpt lat="28.6588996" lon="105.6562924"><ele>661.2</ele><time>2025-12-17T23:16:54.000Z</time></trkpt>
        <trkpt lat="28.6588853" lon="105.6561883"><ele>660.78</ele><time>2025-12-17T23:17:04.000Z</time></trkpt>
        <trkpt lat="28.6588164" lon="105.6561544"><ele>660.35</ele><time>2025-12-17T23:17:16.000Z</time></trkpt>
        <trkpt lat="28.6587303" lon="105.6561231"><ele>657.82</ele><time>2025-12-17T23:17:30.000Z</time></trkpt>
        <trkpt lat="28.6586317" lon="105.6561074"><ele>654.73</ele><time>2025-12-17T23:17:48.000Z</time></trkpt>
        <trkpt lat="28.6585555" lon="105.6561755"><ele>651.68</ele><time>2025-12-17T23:18:14.000Z</time></trkpt>
        <trkpt lat="28.6585255" lon="105.6562742"><ele>647.09</ele><time>2025-12-17T23:18:24.000Z</time></trkpt>
        <trkpt lat="28.6585026" lon="105.6562355"><ele>645.92</ele><time>2025-12-17T23:18:52.000Z</time></trkpt>
        <trkpt lat="28.6584491" lon="105.6561374"><ele>642.69</ele><time>2025-12-17T23:19:32.000Z</time></trkpt>
        <trkpt lat="28.658399" lon="105.656025"><ele>639.46</ele><time>2025-12-17T23:19:50.000Z</time></trkpt>
        <trkpt lat="28.6583926" lon="105.6559073"><ele>636.32</ele><time>2025-12-17T23:20:00.000Z</time></trkpt>
        <trkpt lat="28.6584051" lon="105.6557738"><ele>634.85</ele><time>2025-12-17T23:20:12.000Z</time></trkpt>
        <trkpt lat="28.6584293" lon="105.6556548"><ele>633.2</ele><time>2025-12-17T23:20:30.000Z</time></trkpt>
        <trkpt lat="28.6584143" lon="105.6555461"><ele>632.52</ele><time>2025-12-17T23:20:38.000Z</time></trkpt>
        <trkpt lat="28.658381" lon="105.6555009"><ele>632.73</ele><time>2025-12-17T23:20:52.000Z</time></trkpt>
        <trkpt lat="28.6582668" lon="105.6555229"><ele>630.24</ele><time>2025-12-17T23:22:06.000Z</time></trkpt>
        <trkpt lat="28.6581453" lon="105.6554527"><ele>628.73</ele><time>2025-12-17T23:22:21.000Z</time></trkpt>
        <trkpt lat="28.6581189" lon="105.6554625"><ele>626.47</ele><time>2025-12-17T23:22:23.000Z</time></trkpt>
        <trkpt lat="28.6581007" lon="105.6557218"><ele>625.07</ele><time>2025-12-17T23:25:31.000Z</time></trkpt>
        <trkpt lat="28.6580667" lon="105.6557327"><ele>633.71</ele><time>2025-12-17T23:25:33.000Z</time></trkpt>
        <trkpt lat="28.658064" lon="105.655642"><ele>638.94</ele><time>2025-12-17T23:25:47.000Z</time></trkpt>
        <trkpt lat="28.6580216" lon="105.6555509"><ele>636.49</ele><time>2025-12-17T23:25:57.000Z</time></trkpt>
        <trkpt lat="28.6579483" lon="105.6554702"><ele>634.2</ele><time>2025-12-17T23:26:09.000Z</time></trkpt>
        <trkpt lat="28.6578624" lon="105.6554083"><ele>631.47</ele><time>2025-12-17T23:26:23.000Z</time></trkpt>
        <trkpt lat="28.6577935" lon="105.6553317"><ele>629.75</ele><time>2025-12-17T23:26:33.000Z</time></trkpt>
        <trkpt lat="28.6577065" lon="105.6552605"><ele>627.4</ele><time>2025-12-17T23:26:43.000Z</time></trkpt>
        <trkpt lat="28.6576503" lon="105.6551681"><ele>627.64</ele><time>2025-12-17T23:27:07.000Z</time></trkpt>
        <trkpt lat="28.6576062" lon="105.6550625"><ele>626.7</ele><time>2025-12-17T23:27:17.000Z</time></trkpt>
        <trkpt lat="28.6576254" lon="105.6549883"><ele>625.93</ele><time>2025-12-17T23:27:25.000Z</time></trkpt>
        <trkpt lat="28.6585289" lon="105.6548447"><ele>624.95</ele><time>2025-12-17T23:31:51.000Z</time></trkpt>
        <trkpt lat="28.6586184" lon="105.6548622"><ele>625.5</ele><time>2025-12-17T23:32:01.000Z</time></trkpt>
        <trkpt lat="28.6587168" lon="105.6548559"><ele>627.32</ele><time>2025-12-17T23:32:13.000Z</time></trkpt>
        <trkpt lat="28.6587967" lon="105.6548002"><ele>628.6</ele><time>2025-12-17T23:32:23.000Z</time></trkpt>
        <trkpt lat="28.6587943" lon="105.6548004"><ele>628.59</ele><time>2025-12-17T23:32:30.000Z</time></trkpt>
        <trkpt lat="28.6588533" lon="105.6548203"><ele>629.29</ele><time>2025-12-17T23:32:40.000Z</time></trkpt>
        <trkpt lat="28.6588731" lon="105.6549207"><ele>629.15</ele><time>2025-12-17T23:32:52.000Z</time></trkpt>
        <trkpt lat="28.6588189" lon="105.6550215"><ele>630.9</ele><time>2025-12-17T23:33:00.000Z</time></trkpt>
        <trkpt lat="28.658811" lon="105.6551428"><ele>630.07</ele><time>2025-12-17T23:33:12.000Z</time></trkpt>
        <trkpt lat="28.6587522" lon="105.6552425"><ele>628.88</ele><time>2025-12-17T23:33:20.000Z</time></trkpt>
        <trkpt lat="28.6586652" lon="105.6552889"><ele>629.05</ele><time>2025-12-17T23:33:24.000Z</time></trkpt>
        <trkpt lat="28.6586169" lon="105.6553778"><ele>629.54</ele><time>2025-12-17T23:33:32.000Z</time></trkpt>
        <trkpt lat="28.6586411" lon="105.6554346"><ele>626.39</ele><time>2025-12-17T23:33:42.000Z</time></trkpt>
        <trkpt lat="28.6587258" lon="105.6554401"><ele>626.02</ele><time>2025-12-17T23:34:00.000Z</time></trkpt>
        <trkpt lat="28.6588297" lon="105.6554475"><ele>627.3</ele><time>2025-12-17T23:34:10.000Z</time></trkpt>
        <trkpt lat="28.6589175" lon="105.6555023"><ele>630.32</ele><time>2025-12-17T23:34:30.000Z</time></trkpt>
        <trkpt lat="28.6589989" lon="105.6555692"><ele>632.26</ele><time>2025-12-17T23:34:42.000Z</time></trkpt>
        <trkpt lat="28.6590896" lon="105.6556272"><ele>634.3</ele><time>2025-12-17T23:35:18.000Z</time></trkpt>
        <trkpt lat="28.6591775" lon="105.6556678"><ele>638.11</ele><time>2025-12-17T23:35:30.000Z</time></trkpt>
        <trkpt lat="28.6591923" lon="105.6555897"><ele>638.92</ele><time>2025-12-17T23:36:04.000Z</time></trkpt>
        <trkpt lat="28.6592611" lon="105.6555603"><ele>646.12</ele><time>2025-12-17T23:36:26.000Z</time></trkpt>
        <trkpt lat="28.6592688" lon="105.6554726"><ele>651.56</ele><time>2025-12-17T23:36:48.000Z</time></trkpt>
        <trkpt lat="28.6593371" lon="105.6554611"><ele>656.12</ele><time>2025-12-17T23:37:06.000Z</time></trkpt>
        <trkpt lat="28.6594406" lon="105.6554552"><ele>657.98</ele><time>2025-12-17T23:37:36.000Z</time></trkpt>
        <trkpt lat="28.6594813" lon="105.6554772"><ele>659.5</ele><time>2025-12-17T23:37:40.000Z</time></trkpt>
        <trkpt lat="28.6595546" lon="105.6555097"><ele>660.82</ele><time>2025-12-17T23:38:14.000Z</time></trkpt>
        <trkpt lat="28.6596467" lon="105.6555337"><ele>662.41</ele><time>2025-12-17T23:38:28.000Z</time></trkpt>
        <trkpt lat="28.6597449" lon="105.6555495"><ele>665.46</ele><time>2025-12-17T23:38:54.000Z</time></trkpt>
        <trkpt lat="28.6598424" lon="105.6556033"><ele>666.93</ele><time>2025-12-17T23:39:10.000Z</time></trkpt>
        <trkpt lat="28.6599153" lon="105.6556981"><ele>668.72</ele><time>2025-12-17T23:39:20.000Z</time></trkpt>
        <trkpt lat="28.6599664" lon="105.655796"><ele>669.92</ele><time>2025-12-17T23:39:28.000Z</time></trkpt>
        <trkpt lat="28.6600491" lon="105.6558536"><ele>671.22</ele><time>2025-12-17T23:39:38.000Z</time></trkpt>
        <trkpt lat="28.6601313" lon="105.6559142"><ele>673.53</ele><time>2025-12-17T23:39:52.000Z</time></trkpt>
        <trkpt lat="28.6602257" lon="105.6559698"><ele>674.86</ele><time>2025-12-17T23:40:04.000Z</time></trkpt>
        <trkpt lat="28.6603281" lon="105.6560041"><ele>676.13</ele><time>2025-12-17T23:40:16.000Z</time></trkpt>
        <trkpt lat="28.660431" lon="105.6560401"><ele>677.96</ele><time>2025-12-17T23:40:30.000Z</time></trkpt>
        <trkpt lat="28.6605344" lon="105.6560601"><ele>680.3</ele><time>2025-12-17T23:40:46.000Z</time></trkpt>
        <trkpt lat="28.6606303" lon="105.6560768"><ele>682.53</ele><time>2025-12-17T23:41:02.000Z</time></trkpt>
        <trkpt lat="28.6607143" lon="105.6561195"><ele>686</ele><time>2025-12-17T23:41:20.000Z</time></trkpt>
        <trkpt lat="28.6608094" lon="105.6561348"><ele>687.06</ele><time>2025-12-17T23:41:34.000Z</time></trkpt>
        <trkpt lat="28.6609005" lon="105.6561492"><ele>688.01</ele><time>2025-12-17T23:41:50.000Z</time></trkpt>
        <trkpt lat="28.6609961" lon="105.6561999"><ele>689.72</ele><time>2025-12-17T23:42:06.000Z</time></trkpt>
        <trkpt lat="28.6610656" lon="105.6562248"><ele>690.84</ele><time>2025-12-17T23:42:14.000Z</time></trkpt>
        <trkpt lat="28.6611403" lon="105.656265"><ele>693.61</ele><time>2025-12-17T23:42:52.000Z</time></trkpt>
        <trkpt lat="28.661233" lon="105.6562891"><ele>697.51</ele><time>2025-12-17T23:43:08.000Z</time></trkpt>
        <trkpt lat="28.6613227" lon="105.65633"><ele>701.96</ele><time>2025-12-17T23:43:24.000Z</time></trkpt>
        <trkpt lat="28.6614067" lon="105.6563932"><ele>703.02</ele><time>2025-12-17T23:43:38.000Z</time></trkpt>
        <trkpt lat="28.6615053" lon="105.6564208"><ele>705.23</ele><time>2025-12-17T23:43:52.000Z</time></trkpt>
        <trkpt lat="28.6615997" lon="105.6564473"><ele>706.39</ele><time>2025-12-17T23:44:06.000Z</time></trkpt>
        <trkpt lat="28.6616935" lon="105.6564372"><ele>708.25</ele><time>2025-12-17T23:44:28.000Z</time></trkpt>
        <trkpt lat="28.6617878" lon="105.6564153"><ele>710.25</ele><time>2025-12-17T23:44:48.000Z</time></trkpt>
        <trkpt lat="28.6618811" lon="105.6564091"><ele>712.41</ele><time>2025-12-17T23:45:00.000Z</time></trkpt>
        <trkpt lat="28.6619831" lon="105.6564114"><ele>713.14</ele><time>2025-12-17T23:45:18.000Z</time></trkpt>
        <trkpt lat="28.6620794" lon="105.6563783"><ele>715.46</ele><time>2025-12-17T23:45:36.000Z</time></trkpt>
        <trkpt lat="28.6621739" lon="105.6563611"><ele>714.56</ele><time>2025-12-17T23:45:54.000Z</time></trkpt>
        <trkpt lat="28.6622748" lon="105.6563674"><ele>717.36</ele><time>2025-12-17T23:46:16.000Z</time></trkpt>
        <trkpt lat="28.6623597" lon="105.6564132"><ele>720.78</ele><time>2025-12-17T23:46:32.000Z</time></trkpt>
        <trkpt lat="28.6624563" lon="105.6564459"><ele>722.18</ele><time>2025-12-17T23:46:50.000Z</time></trkpt>
        <trkpt lat="28.6625493" lon="105.6564462"><ele>724.22</ele><time>2025-12-17T23:47:04.000Z</time></trkpt>
        <trkpt lat="28.6626463" lon="105.656436"><ele>727.8</ele><time>2025-12-17T23:47:20.000Z</time></trkpt>
        <trkpt lat="28.6627448" lon="105.6563959"><ele>730.23</ele><time>2025-12-17T23:47:34.000Z</time></trkpt>
        <trkpt lat="28.6628386" lon="105.6563449"><ele>732.76</ele><time>2025-12-17T23:47:46.000Z</time></trkpt>
        <trkpt lat="28.662925" lon="105.6562936"><ele>736.18</ele><time>2025-12-17T23:48:00.000Z</time></trkpt>
        <trkpt lat="28.6629953" lon="105.656218"><ele>739.6</ele><time>2025-12-17T23:48:16.000Z</time></trkpt>
        <trkpt lat="28.6630245" lon="105.6561118"><ele>739.62</ele><time>2025-12-17T23:48:30.000Z</time></trkpt>
        <trkpt lat="28.6630545" lon="105.6560009"><ele>739.09</ele><time>2025-12-17T23:48:44.000Z</time></trkpt>
        <trkpt lat="28.6631129" lon="105.6559117"><ele>737.38</ele><time>2025-12-17T23:48:56.000Z</time></trkpt>
        <trkpt lat="28.663188" lon="105.6559316"><ele>735.18</ele><time>2025-12-17T23:49:26.000Z</time></trkpt>
        <trkpt lat="28.6632436" lon="105.6560238"><ele>733.1</ele><time>2025-12-17T23:49:42.000Z</time></trkpt>
        <trkpt lat="28.6633166" lon="105.6561162"><ele>732.68</ele><time>2025-12-17T23:49:54.000Z</time></trkpt>
        <trkpt lat="28.6633779" lon="105.6562174"><ele>733.2</ele><time>2025-12-17T23:50:06.000Z</time></trkpt>
        <trkpt lat="28.6634547" lon="105.6562952"><ele>732.65</ele><time>2025-12-17T23:50:18.000Z</time></trkpt>
        <trkpt lat="28.6635284" lon="105.6563677"><ele>732.86</ele><time>2025-12-17T23:50:26.000Z</time></trkpt>
        <trkpt lat="28.6636125" lon="105.6564536"><ele>735.1</ele><time>2025-12-17T23:50:34.000Z</time></trkpt>
        <trkpt lat="28.6636837" lon="105.6565365"><ele>737.63</ele><time>2025-12-17T23:50:40.000Z</time></trkpt>
        <trkpt lat="28.6637673" lon="105.6566327"><ele>739.99</ele><time>2025-12-17T23:50:48.000Z</time></trkpt>
        <trkpt lat="28.6638404" lon="105.656718"><ele>742.45</ele><time>2025-12-17T23:50:58.000Z</time></trkpt>
        <trkpt lat="28.6638577" lon="105.656763"><ele>745</ele><time>2025-12-17T23:51:04.000Z</time></trkpt>
        <trkpt lat="28.663929" lon="105.6567928"><ele>747.6</ele><time>2025-12-17T23:51:42.000Z</time></trkpt>
        <trkpt lat="28.6640197" lon="105.6567972"><ele>751.93</ele><time>2025-12-17T23:51:52.000Z</time></trkpt>
        <trkpt lat="28.6641272" lon="105.6568135"><ele>753.44</ele><time>2025-12-17T23:52:04.000Z</time></trkpt>
        <trkpt lat="28.6642268" lon="105.6568728"><ele>753.98</ele><time>2025-12-17T23:52:12.000Z</time></trkpt>
        <trkpt lat="28.6643258" lon="105.6569101"><ele>753.93</ele><time>2025-12-17T23:52:20.000Z</time></trkpt>
        <trkpt lat="28.6643935" lon="105.6569919"><ele>753.67</ele><time>2025-12-17T23:52:28.000Z</time></trkpt>
        <trkpt lat="28.6644348" lon="105.6570999"><ele>752.3</ele><time>2025-12-17T23:52:38.000Z</time></trkpt>
        <trkpt lat="28.6645228" lon="105.6571524"><ele>751.2</ele><time>2025-12-17T23:52:46.000Z</time></trkpt>
        <trkpt lat="28.6646028" lon="105.6572182"><ele>749.48</ele><time>2025-12-17T23:53:06.000Z</time></trkpt>
        <trkpt lat="28.6647005" lon="105.657228"><ele>748.49</ele><time>2025-12-17T23:53:14.000Z</time></trkpt>
        <trkpt lat="28.6648014" lon="105.6572015"><ele>748.93</ele><time>2025-12-17T23:53:24.000Z</time></trkpt>
        <trkpt lat="28.6649023" lon="105.6571755"><ele>748.71</ele><time>2025-12-17T23:53:34.000Z</time></trkpt>
        <trkpt lat="28.6649951" lon="105.6571522"><ele>749.14</ele><time>2025-12-17T23:53:42.000Z</time></trkpt>
        <trkpt lat="28.6650347" lon="105.6570624"><ele>748.44</ele><time>2025-12-17T23:53:54.000Z</time></trkpt>
        <trkpt lat="28.6650712" lon="105.656956"><ele>747.7</ele><time>2025-12-17T23:54:02.000Z</time></trkpt>
        <trkpt lat="28.665119" lon="105.6568594"><ele>747.39</ele><time>2025-12-17T23:54:10.000Z</time></trkpt>
        <trkpt lat="28.6651516" lon="105.6567532"><ele>747.86</ele><time>2025-12-17T23:54:18.000Z</time></trkpt>
        <trkpt lat="28.6651612" lon="105.6566414"><ele>748.06</ele><time>2025-12-17T23:54:26.000Z</time></trkpt>
        <trkpt lat="28.6651196" lon="105.6565443"><ele>748.47</ele><time>2025-12-17T23:54:34.000Z</time></trkpt>
        <trkpt lat="28.6650436" lon="105.6564634"><ele>749.57</ele><time>2025-12-17T23:54:42.000Z</time></trkpt>
        <trkpt lat="28.6649648" lon="105.6563832"><ele>750.94</ele><time>2025-12-17T23:54:50.000Z</time></trkpt>
        <trkpt lat="28.6649215" lon="105.6562834"><ele>752.51</ele><time>2025-12-17T23:54:58.000Z</time></trkpt>
        <trkpt lat="28.6649366" lon="105.6561807"><ele>752.36</ele><time>2025-12-17T23:55:04.000Z</time></trkpt>
        <trkpt lat="28.6650053" lon="105.6560691"><ele>751.83</ele><time>2025-12-17T23:55:10.000Z</time></trkpt>
        <trkpt lat="28.6650649" lon="105.6560395"><ele>751.45</ele><time>2025-12-17T23:55:18.000Z</time></trkpt>
        <trkpt lat="28.6650345" lon="105.6559721"><ele>750.67</ele><time>2025-12-17T23:55:24.000Z</time></trkpt>
        <trkpt lat="28.6649882" lon="105.6558542"><ele>749.75</ele><time>2025-12-17T23:55:28.000Z</time></trkpt>
        <trkpt lat="28.6649419" lon="105.6557228"><ele>748.78</ele><time>2025-12-17T23:55:32.000Z</time></trkpt>
        <trkpt lat="28.6649335" lon="105.655605"><ele>747.99</ele><time>2025-12-17T23:55:36.000Z</time></trkpt>
        <trkpt lat="28.664977" lon="105.6554953"><ele>747.29</ele><time>2025-12-17T23:55:40.000Z</time></trkpt>
        <trkpt lat="28.6650884" lon="105.6554087"><ele>746.83</ele><time>2025-12-17T23:55:44.000Z</time></trkpt>
        <trkpt lat="28.6651599" lon="105.6553072"><ele>746.58</ele><time>2025-12-17T23:55:48.000Z</time></trkpt>
        <trkpt lat="28.6652585" lon="105.6552821"><ele>746.1</ele><time>2025-12-17T23:55:54.000Z</time></trkpt>
        <trkpt lat="28.6653469" lon="105.6553517"><ele>745.65</ele><time>2025-12-17T23:56:04.000Z</time></trkpt>
        <trkpt lat="28.6653601" lon="105.6553886"><ele>746.96</ele><time>2025-12-17T23:56:12.000Z</time></trkpt>
        <trkpt lat="28.6653755" lon="105.6553142"><ele>748.33</ele><time>2025-12-17T23:56:22.000Z</time></trkpt>
        <trkpt lat="28.665353" lon="105.6552111"><ele>752.77</ele><time>2025-12-17T23:56:26.000Z</time></trkpt>
        <trkpt lat="28.6653115" lon="105.655104"><ele>755.05</ele><time>2025-12-17T23:56:30.000Z</time></trkpt>
        <trkpt lat="28.6652724" lon="105.6549833"><ele>757.14</ele><time>2025-12-17T23:56:36.000Z</time></trkpt>
        <trkpt lat="28.665241" lon="105.6548701"><ele>759.02</ele><time>2025-12-17T23:56:44.000Z</time></trkpt>
        <trkpt lat="28.6652161" lon="105.6547391"><ele>762.15</ele><time>2025-12-17T23:56:54.000Z</time></trkpt>
        <trkpt lat="28.6652308" lon="105.6546165"><ele>764.05</ele><time>2025-12-17T23:57:08.000Z</time></trkpt>
        <trkpt lat="28.6652405" lon="105.654491"><ele>763.88</ele><time>2025-12-17T23:57:16.000Z</time></trkpt>
        <trkpt lat="28.6652691" lon="105.6543479"><ele>762.05</ele><time>2025-12-17T23:57:24.000Z</time></trkpt>
        <trkpt lat="28.6653357" lon="105.654248"><ele>759.65</ele><time>2025-12-17T23:57:36.000Z</time></trkpt>
        <trkpt lat="28.6654282" lon="105.6541814"><ele>750.77</ele><time>2025-12-17T23:57:46.000Z</time></trkpt>
        <trkpt lat="28.6655013" lon="105.6541098"><ele>745.42</ele><time>2025-12-17T23:57:54.000Z</time></trkpt>
        <trkpt lat="28.6655419" lon="105.6540125"><ele>741.88</ele><time>2025-12-17T23:58:02.000Z</time></trkpt>
        <trkpt lat="28.6655396" lon="105.653903"><ele>740.86</ele><time>2025-12-17T23:58:10.000Z</time></trkpt>
        <trkpt lat="28.66551" lon="105.6537914"><ele>741.46</ele><time>2025-12-17T23:58:18.000Z</time></trkpt>
        <trkpt lat="28.6654734" lon="105.6536884"><ele>742.18</ele><time>2025-12-17T23:58:26.000Z</time></trkpt>
        <trkpt lat="28.6654366" lon="105.6535859"><ele>742.68</ele><time>2025-12-17T23:58:34.000Z</time></trkpt>
        <trkpt lat="28.6653862" lon="105.6534778"><ele>742.75</ele><time>2025-12-17T23:58:44.000Z</time></trkpt>
        <trkpt lat="28.6653082" lon="105.6533944"><ele>743.26</ele><time>2025-12-17T23:58:54.000Z</time></trkpt>
        <trkpt lat="28.6652035" lon="105.6533543"><ele>743.18</ele><time>2025-12-17T23:59:04.000Z</time></trkpt>
        <trkpt lat="28.6650952" lon="105.6533238"><ele>742.59</ele><time>2025-12-17T23:59:12.000Z</time></trkpt>
        <trkpt lat="28.6650265" lon="105.6532345"><ele>741.97</ele><time>2025-12-17T23:59:20.000Z</time></trkpt>
        <trkpt lat="28.6650362" lon="105.6531123"><ele>741.31</ele><time>2025-12-17T23:59:28.000Z</time></trkpt>
        <trkpt lat="28.6650985" lon="105.6529913"><ele>740.8</ele><time>2025-12-17T23:59:36.000Z</time></trkpt>
        <trkpt lat="28.6651697" lon="105.6528851"><ele>740.34</ele><time>2025-12-17T23:59:44.000Z</time></trkpt>
        <trkpt lat="28.665233" lon="105.6527953"><ele>740.24</ele><time>2025-12-17T23:59:52.000Z</time></trkpt>
        <trkpt lat="28.6652966" lon="105.652698"><ele>740.43</ele><time>2025-12-18T00:00:02.000Z</time></trkpt>
        <trkpt lat="28.6653226" lon="105.6526659"><ele>740.97</ele><time>2025-12-18T00:00:04.000Z</time></trkpt>
        <trkpt lat="28.665368" lon="105.6525999"><ele>741.3</ele><time>2025-12-18T00:00:14.000Z</time></trkpt>
        <trkpt lat="28.6654198" lon="105.6525136"><ele>741.37</ele><time>2025-12-18T00:00:24.000Z</time></trkpt>
        <trkpt lat="28.6654595" lon="105.6524149"><ele>740.16</ele><time>2025-12-18T00:00:34.000Z</time></trkpt>
        <trkpt lat="28.6655132" lon="105.6523092"><ele>741.02</ele><time>2025-12-18T00:00:44.000Z</time></trkpt>
        <trkpt lat="28.6655854" lon="105.6522275"><ele>741.16</ele><time>2025-12-18T00:00:50.000Z</time></trkpt>
        <trkpt lat="28.6656732" lon="105.6521815"><ele>740.37</ele><time>2025-12-18T00:00:56.000Z</time></trkpt>
        <trkpt lat="28.665762" lon="105.6521394"><ele>738.68</ele><time>2025-12-18T00:01:04.000Z</time></trkpt>
        <trkpt lat="28.6658349" lon="105.6520658"><ele>737.04</ele><time>2025-12-18T00:01:14.000Z</time></trkpt>
        <trkpt lat="28.6658683" lon="105.6519544"><ele>735.97</ele><time>2025-12-18T00:01:24.000Z</time></trkpt>
        <trkpt lat="28.6658999" lon="105.6518275"><ele>737.1</ele><time>2025-12-18T00:01:32.000Z</time></trkpt>
        <trkpt lat="28.6658944" lon="105.6517061"><ele>736.6</ele><time>2025-12-18T00:01:40.000Z</time></trkpt>
        <trkpt lat="28.6658481" lon="105.6516061"><ele>737.13</ele><time>2025-12-18T00:01:48.000Z</time></trkpt>
        <trkpt lat="28.6657997" lon="105.6514984"><ele>738.09</ele><time>2025-12-18T00:01:58.000Z</time></trkpt>
        <trkpt lat="28.6658068" lon="105.6513933"><ele>738.85</ele><time>2025-12-18T00:02:06.000Z</time></trkpt>
        <trkpt lat="28.6658688" lon="105.651294"><ele>739.18</ele><time>2025-12-18T00:02:16.000Z</time></trkpt>
        <trkpt lat="28.6658529" lon="105.6512645"><ele>740.15</ele><time>2025-12-18T00:02:26.000Z</time></trkpt>
        <trkpt lat="28.6657964" lon="105.6513259"><ele>739.49</ele><time>2025-12-18T00:02:32.000Z</time></trkpt>
        <trkpt lat="28.6656979" lon="105.6513385"><ele>737.96</ele><time>2025-12-18T00:02:44.000Z</time></trkpt>
        <trkpt lat="28.6656382" lon="105.6512533"><ele>735.31</ele><time>2025-12-18T00:02:52.000Z</time></trkpt>
        <trkpt lat="28.6656018" lon="105.6511374"><ele>733.27</ele><time>2025-12-18T00:03:00.000Z</time></trkpt>
        <trkpt lat="28.6655576" lon="105.6510221"><ele>731.07</ele><time>2025-12-18T00:03:08.000Z</time></trkpt>
        <trkpt lat="28.6655026" lon="105.6509245"><ele>730.33</ele><time>2025-12-18T00:03:16.000Z</time></trkpt>
        <trkpt lat="28.665431" lon="105.6508477"><ele>728.88</ele><time>2025-12-18T00:03:24.000Z</time></trkpt>
        <trkpt lat="28.6653713" lon="105.6507668"><ele>727.35</ele><time>2025-12-18T00:03:32.000Z</time></trkpt>
        <trkpt lat="28.6653651" lon="105.650667"><ele>726.92</ele><time>2025-12-18T00:03:40.000Z</time></trkpt>
        <trkpt lat="28.6653591" lon="105.6506363"><ele>724.87</ele><time>2025-12-18T00:03:54.000Z</time></trkpt>
        <trkpt lat="28.6653876" lon="105.6505644"><ele>723.95</ele><time>2025-12-18T00:04:06.000Z</time></trkpt>
        <trkpt lat="28.6654308" lon="105.650476"><ele>722.69</ele><time>2025-12-18T00:04:14.000Z</time></trkpt>
        <trkpt lat="28.6654687" lon="105.6503704"><ele>722.24</ele><time>2025-12-18T00:04:24.000Z</time></trkpt>
        <trkpt lat="28.6655106" lon="105.6502686"><ele>722.21</ele><time>2025-12-18T00:04:34.000Z</time></trkpt>
        <trkpt lat="28.6655661" lon="105.6501638"><ele>721.81</ele><time>2025-12-18T00:04:46.000Z</time></trkpt>
        <trkpt lat="28.6656324" lon="105.6500645"><ele>719.97</ele><time>2025-12-18T00:04:56.000Z</time></trkpt>
        <trkpt lat="28.6656926" lon="105.6499704"><ele>718.74</ele><time>2025-12-18T00:05:06.000Z</time></trkpt>
        <trkpt lat="28.6657656" lon="105.6498971"><ele>719.11</ele><time>2025-12-18T00:05:16.000Z</time></trkpt>
        <trkpt lat="28.6658565" lon="105.6498609"><ele>720.71</ele><time>2025-12-18T00:05:24.000Z</time></trkpt>
        <trkpt lat="28.6659625" lon="105.6498375"><ele>722.51</ele><time>2025-12-18T00:05:34.000Z</time></trkpt>
        <trkpt lat="28.6660645" lon="105.6498602"><ele>724.79</ele><time>2025-12-18T00:05:44.000Z</time></trkpt>
        <trkpt lat="28.6661306" lon="105.6499162"><ele>725.91</ele><time>2025-12-18T00:05:52.000Z</time></trkpt>
        <trkpt lat="28.6661912" lon="105.6499992"><ele>725.04</ele><time>2025-12-18T00:06:14.000Z</time></trkpt>
        <trkpt lat="28.6662617" lon="105.6500939"><ele>721.32</ele><time>2025-12-18T00:06:24.000Z</time></trkpt>
        <trkpt lat="28.6662842" lon="105.6502126"><ele>718.24</ele><time>2025-12-18T00:06:34.000Z</time></trkpt>
        <trkpt lat="28.6662176" lon="105.650227"><ele>716.49</ele><time>2025-12-18T00:06:58.000Z</time></trkpt>
        <trkpt lat="28.6661683" lon="105.6502067"><ele>715.3</ele><time>2025-12-18T00:07:02.000Z</time></trkpt>
        <trkpt lat="28.6661958" lon="105.6501319"><ele>714.07</ele><time>2025-12-18T00:07:18.000Z</time></trkpt>
        <trkpt lat="28.6662229" lon="105.6500893"><ele>712.5</ele><time>2025-12-18T00:07:20.000Z</time></trkpt>
        <trkpt lat="28.6662414" lon="105.6499882"><ele>711.54</ele><time>2025-12-18T00:08:00.000Z</time></trkpt>
        <trkpt lat="28.6663148" lon="105.6499366"><ele>709.5</ele><time>2025-12-18T00:08:08.000Z</time></trkpt>
        <trkpt lat="28.6663636" lon="105.649877"><ele>706.7</ele><time>2025-12-18T00:08:16.000Z</time></trkpt>
        <trkpt lat="28.6664313" lon="105.6498043"><ele>704.5</ele><time>2025-12-18T00:08:24.000Z</time></trkpt>
        <trkpt lat="28.666447" lon="105.6497008"><ele>702.83</ele><time>2025-12-18T00:08:28.000Z</time></trkpt>
        <trkpt lat="28.6664838" lon="105.6496356"><ele>699.67</ele><time>2025-12-18T00:08:38.000Z</time></trkpt>
        <trkpt lat="28.6665735" lon="105.6496257"><ele>697.92</ele><time>2025-12-18T00:08:44.000Z</time></trkpt>
        <trkpt lat="28.6666085" lon="105.6495483"><ele>699.01</ele><time>2025-12-18T00:09:20.000Z</time></trkpt>
        <trkpt lat="28.6665678" lon="105.6494612"><ele>695.48</ele><time>2025-12-18T00:09:32.000Z</time></trkpt>
        <trkpt lat="28.6665006" lon="105.6493672"><ele>692.48</ele><time>2025-12-18T00:09:46.000Z</time></trkpt>
        <trkpt lat="28.6664913" lon="105.6492582"><ele>688.99</ele><time>2025-12-18T00:09:54.000Z</time></trkpt>
        <trkpt lat="28.6664471" lon="105.6491648"><ele>687.55</ele><time>2025-12-18T00:10:24.000Z</time></trkpt>
        <trkpt lat="28.6663748" lon="105.6490939"><ele>687.37</ele><time>2025-12-18T00:10:38.000Z</time></trkpt>
        <trkpt lat="28.6663578" lon="105.6490358"><ele>687.73</ele><time>2025-12-18T00:10:42.000Z</time></trkpt>
        <trkpt lat="28.666293" lon="105.6489824"><ele>688.85</ele><time>2025-12-18T00:10:54.000Z</time></trkpt>
        <trkpt lat="28.6662489" lon="105.6488939"><ele>688.89</ele><time>2025-12-18T00:11:04.000Z</time></trkpt>
        <trkpt lat="28.6662044" lon="105.6488021"><ele>688.88</ele><time>2025-12-18T00:11:14.000Z</time></trkpt>
        <trkpt lat="28.6661949" lon="105.6486917"><ele>689</ele><time>2025-12-18T00:11:26.000Z</time></trkpt>
        <trkpt lat="28.6662159" lon="105.6485765"><ele>686.85</ele><time>2025-12-18T00:11:38.000Z</time></trkpt>
        <trkpt lat="28.6661505" lon="105.6485306"><ele>686.81</ele><time>2025-12-18T00:11:42.000Z</time></trkpt>
        <trkpt lat="28.6660891" lon="105.6484602"><ele>684.69</ele><time>2025-12-18T00:11:54.000Z</time></trkpt>
        <trkpt lat="28.6660238" lon="105.6483763"><ele>683.18</ele><time>2025-12-18T00:12:10.000Z</time></trkpt>
        <trkpt lat="28.6659464" lon="105.6483151"><ele>680.77</ele><time>2025-12-18T00:12:28.000Z</time></trkpt>
        <trkpt lat="28.6659037" lon="105.6482243"><ele>679.94</ele><time>2025-12-18T00:12:38.000Z</time></trkpt>
        <trkpt lat="28.6659129" lon="105.6481176"><ele>678.47</ele><time>2025-12-18T00:12:50.000Z</time></trkpt>
        <trkpt lat="28.6658792" lon="105.6480185"><ele>677.85</ele><time>2025-12-18T00:13:00.000Z</time></trkpt>
        <trkpt lat="28.6658426" lon="105.6479789"><ele>678.08</ele><time>2025-12-18T00:13:06.000Z</time></trkpt>
        <trkpt lat="28.6659075" lon="105.6479958"><ele>678.34</ele><time>2025-12-18T00:13:38.000Z</time></trkpt>
        <trkpt lat="28.6659892" lon="105.6480721"><ele>676.37</ele><time>2025-12-18T00:13:54.000Z</time></trkpt>
        <trkpt lat="28.6659834" lon="105.6481102"><ele>673.43</ele><time>2025-12-18T00:14:02.000Z</time></trkpt>
        <trkpt lat="28.6660406" lon="105.6481445"><ele>671.14</ele><time>2025-12-18T00:14:20.000Z</time></trkpt>
        <trkpt lat="28.6661394" lon="105.6481654"><ele>669.81</ele><time>2025-12-18T00:14:28.000Z</time></trkpt>
        <trkpt lat="28.66622" lon="105.648227"><ele>667.69</ele><time>2025-12-18T00:14:36.000Z</time></trkpt>
        <trkpt lat="28.6663046" lon="105.6483058"><ele>663.51</ele><time>2025-12-18T00:14:46.000Z</time></trkpt>
        <trkpt lat="28.6663892" lon="105.6483769"><ele>661.05</ele><time>2025-12-18T00:15:00.000Z</time></trkpt>
        <trkpt lat="28.6664542" lon="105.6484587"><ele>658.41</ele><time>2025-12-18T00:15:12.000Z</time></trkpt>
        <trkpt lat="28.6665029" lon="105.6485532"><ele>656.89</ele><time>2025-12-18T00:15:24.000Z</time></trkpt>
        <trkpt lat="28.6665713" lon="105.6486313"><ele>655.71</ele><time>2025-12-18T00:15:32.000Z</time></trkpt>
        <trkpt lat="28.6666602" lon="105.6486602"><ele>655.38</ele><time>2025-12-18T00:15:44.000Z</time></trkpt>
        <trkpt lat="28.6667562" lon="105.6486786"><ele>653.8</ele><time>2025-12-18T00:15:58.000Z</time></trkpt>
        <trkpt lat="28.6667904" lon="105.648688"><ele>653.35</ele><time>2025-12-18T00:16:12.000Z</time></trkpt>
        <trkpt lat="28.6668631" lon="105.6486623"><ele>651.69</ele><time>2025-12-18T00:16:28.000Z</time></trkpt>
        <trkpt lat="28.6669473" lon="105.648593"><ele>648.9</ele><time>2025-12-18T00:16:36.000Z</time></trkpt>
        <trkpt lat="28.667032" lon="105.648623"><ele>647.47</ele><time>2025-12-18T00:17:10.000Z</time></trkpt>
        <trkpt lat="28.6671379" lon="105.6486249"><ele>644.65</ele><time>2025-12-18T00:17:20.000Z</time></trkpt>
        <trkpt lat="28.6672069" lon="105.648729"><ele>641.81</ele><time>2025-12-18T00:17:24.000Z</time></trkpt>
        <trkpt lat="28.6672741" lon="105.6488311"><ele>640.41</ele><time>2025-12-18T00:17:30.000Z</time></trkpt>
        <trkpt lat="28.6672279" lon="105.6489039"><ele>642.52</ele><time>2025-12-18T00:17:54.000Z</time></trkpt>
        <trkpt lat="28.6672588" lon="105.6489886"><ele>641.63</ele><time>2025-12-18T00:18:04.000Z</time></trkpt>
        <trkpt lat="28.6673398" lon="105.6490164"><ele>641.9</ele><time>2025-12-18T00:18:14.000Z</time></trkpt>
        <trkpt lat="28.6674532" lon="105.6490291"><ele>642.42</ele><time>2025-12-18T00:18:40.000Z</time></trkpt>
        <trkpt lat="28.667554" lon="105.6489917"><ele>641.52</ele><time>2025-12-18T00:19:10.000Z</time></trkpt>
        <trkpt lat="28.6676528" lon="105.6489977"><ele>636.21</ele><time>2025-12-18T00:19:32.000Z</time></trkpt>
        <trkpt lat="28.6677151" lon="105.6490123"><ele>631.27</ele><time>2025-12-18T00:19:40.000Z</time></trkpt>
        <trkpt lat="28.6677788" lon="105.6489593"><ele>629.03</ele><time>2025-12-18T00:20:02.000Z</time></trkpt>
        <trkpt lat="28.6678645" lon="105.6489801"><ele>624.88</ele><time>2025-12-18T00:20:20.000Z</time></trkpt>
        <trkpt lat="28.6680125" lon="105.6491301"><ele>620.05</ele><time>2025-12-18T00:22:09.000Z</time></trkpt>
        <trkpt lat="28.6680869" lon="105.6492087"><ele>614</ele><time>2025-12-18T00:22:23.000Z</time></trkpt>
        <trkpt lat="28.6681056" lon="105.6492561"><ele>611.37</ele><time>2025-12-18T00:22:31.000Z</time></trkpt>
        <trkpt lat="28.6682509" lon="105.6493192"><ele>609.81</ele><time>2025-12-18T00:25:31.000Z</time></trkpt>
        <trkpt lat="28.6683481" lon="105.6493264"><ele>597.39</ele><time>2025-12-18T00:27:55.000Z</time></trkpt>
        <trkpt lat="28.6684297" lon="105.6493778"><ele>589.03</ele><time>2025-12-18T00:28:17.000Z</time></trkpt>
        <trkpt lat="28.6684458" lon="105.6493791"><ele>584.16</ele><time>2025-12-18T00:28:23.000Z</time></trkpt>
        <trkpt lat="28.6685216" lon="105.6493978"><ele>580.64</ele><time>2025-12-18T00:28:51.000Z</time></trkpt>
        <trkpt lat="28.6685931" lon="105.6493421"><ele>576.49</ele><time>2025-12-18T00:29:27.000Z</time></trkpt>
        <trkpt lat="28.6686846" lon="105.6493384"><ele>571.27</ele><time>2025-12-18T00:29:41.000Z</time></trkpt>
        <trkpt lat="28.6687769" lon="105.6493538"><ele>566.75</ele><time>2025-12-18T00:29:59.000Z</time></trkpt>
        <trkpt lat="28.6687397" lon="105.6494556"><ele>562.47</ele><time>2025-12-18T00:31:47.000Z</time></trkpt>
        <trkpt lat="28.6687518" lon="105.6495862"><ele>560.53</ele><time>2025-12-18T00:31:57.000Z</time></trkpt>
        <trkpt lat="28.6688117" lon="105.6496909"><ele>558.02</ele><time>2025-12-18T00:32:05.000Z</time></trkpt>
        <trkpt lat="28.6688592" lon="105.6498005"><ele>556.33</ele><time>2025-12-18T00:32:15.000Z</time></trkpt>
        <trkpt lat="28.6688514" lon="105.649913"><ele>555.57</ele><time>2025-12-18T00:32:27.000Z</time></trkpt>
        <trkpt lat="28.668852" lon="105.6500202"><ele>555.42</ele><time>2025-12-18T00:32:37.000Z</time></trkpt>
        <trkpt lat="28.6688615" lon="105.6500903"><ele>555.77</ele><time>2025-12-18T00:32:45.000Z</time></trkpt>
        <trkpt lat="28.6688811" lon="105.6501881"><ele>554.69</ele><time>2025-12-18T00:32:55.000Z</time></trkpt>
        <trkpt lat="28.6688898" lon="105.6503015"><ele>556.33</ele><time>2025-12-18T00:33:07.000Z</time></trkpt>
        <trkpt lat="28.6688929" lon="105.6504126"><ele>555.98</ele><time>2025-12-18T00:33:17.000Z</time></trkpt>
        <trkpt lat="28.6689033" lon="105.6505307"><ele>555.23</ele><time>2025-12-18T00:33:27.000Z</time></trkpt>
        <trkpt lat="28.6689071" lon="105.6506388"><ele>553.58</ele><time>2025-12-18T00:33:37.000Z</time></trkpt>
        <trkpt lat="28.6689064" lon="105.6507421"><ele>552.41</ele><time>2025-12-18T00:33:47.000Z</time></trkpt>
        <trkpt lat="28.6689263" lon="105.6508461"><ele>550.31</ele><time>2025-12-18T00:33:57.000Z</time></trkpt>
        <trkpt lat="28.6689643" lon="105.6509525"><ele>548.39</ele><time>2025-12-18T00:34:09.000Z</time></trkpt>
        <trkpt lat="28.6689765" lon="105.6510628"><ele>546.16</ele><time>2025-12-18T00:34:21.000Z</time></trkpt>
        <trkpt lat="28.6689802" lon="105.6511798"><ele>542.46</ele><time>2025-12-18T00:34:33.000Z</time></trkpt>
        <trkpt lat="28.6690164" lon="105.6512869"><ele>540.96</ele><time>2025-12-18T00:34:45.000Z</time></trkpt>
        <trkpt lat="28.6690677" lon="105.6513779"><ele>540.17</ele><time>2025-12-18T00:34:55.000Z</time></trkpt>
        <trkpt lat="28.6691283" lon="105.6514607"><ele>538.89</ele><time>2025-12-18T00:35:07.000Z</time></trkpt>
        <trkpt lat="28.6692066" lon="105.6515268"><ele>537.29</ele><time>2025-12-18T00:35:37.000Z</time></trkpt>
        <trkpt lat="28.6692568" lon="105.6516178"><ele>535.22</ele><time>2025-12-18T00:35:47.000Z</time></trkpt>
        <trkpt lat="28.6692621" lon="105.6517286"><ele>533.41</ele><time>2025-12-18T00:35:57.000Z</time></trkpt>
        <trkpt lat="28.6692376" lon="105.6518433"><ele>532.94</ele><time>2025-12-18T00:36:07.000Z</time></trkpt>
        <trkpt lat="28.6692228" lon="105.6519587"><ele>533.25</ele><time>2025-12-18T00:36:17.000Z</time></trkpt>
        <trkpt lat="28.6691935" lon="105.6520694"><ele>531.02</ele><time>2025-12-18T00:36:27.000Z</time></trkpt>
        <trkpt lat="28.6691603" lon="105.6521809"><ele>528.07</ele><time>2025-12-18T00:36:37.000Z</time></trkpt>
        <trkpt lat="28.6691382" lon="105.6522923"><ele>525.79</ele><time>2025-12-18T00:36:47.000Z</time></trkpt>
        <trkpt lat="28.66915" lon="105.6523466"><ele>523.15</ele><time>2025-12-18T00:36:53.000Z</time></trkpt>
        <trkpt lat="28.6691609" lon="105.6522712"><ele>522.14</ele><time>2025-12-18T00:37:31.000Z</time></trkpt>
        <trkpt lat="28.6691528" lon="105.6523169"><ele>522.2</ele><time>2025-12-18T00:37:43.000Z</time></trkpt>
        <trkpt lat="28.6692156" lon="105.6522831"><ele>521.76</ele><time>2025-12-18T00:38:05.000Z</time></trkpt>
        <trkpt lat="28.6692437" lon="105.6522683"><ele>521.1</ele><time>2025-12-18T00:38:07.000Z</time></trkpt>
        <trkpt lat="28.6693087" lon="105.6522233"><ele>520.69</ele><time>2025-12-18T00:38:23.000Z</time></trkpt>
        <trkpt lat="28.669381" lon="105.6522707"><ele>520.84</ele><time>2025-12-18T00:38:31.000Z</time></trkpt>
        <trkpt lat="28.6693613" lon="105.6523545"><ele>522.9</ele><time>2025-12-18T00:38:41.000Z</time></trkpt>
        <trkpt lat="28.6693816" lon="105.6524532"><ele>522.9</ele><time>2025-12-18T00:38:55.000Z</time></trkpt>
        <trkpt lat="28.669456" lon="105.6524739"><ele>524.29</ele><time>2025-12-18T00:39:13.000Z</time></trkpt>
        <trkpt lat="28.6694666" lon="105.6525654"><ele>521.6</ele><time>2025-12-18T00:39:37.000Z</time></trkpt>
        <trkpt lat="28.6694934" lon="105.6526726"><ele>516.96</ele><time>2025-12-18T00:39:57.000Z</time></trkpt>
        <trkpt lat="28.6694984" lon="105.6527373"><ele>510.93</ele><time>2025-12-18T00:40:05.000Z</time></trkpt>
        <trkpt lat="28.6695237" lon="105.6528347"><ele>506.3</ele><time>2025-12-18T00:40:21.000Z</time></trkpt>
        <trkpt lat="28.6694939" lon="105.6529381"><ele>502.29</ele><time>2025-12-18T00:40:33.000Z</time></trkpt>
        <trkpt lat="28.6695041" lon="105.6530408"><ele>499.31</ele><time>2025-12-18T00:40:45.000Z</time></trkpt>
        <trkpt lat="28.669507" lon="105.6530628"><ele>493.54</ele><time>2025-12-18T00:40:47.000Z</time></trkpt>
        <trkpt lat="28.6695553" lon="105.6531163"><ele>490.08</ele><time>2025-12-18T00:41:11.000Z</time></trkpt>
        <trkpt lat="28.6696367" lon="105.6531759"><ele>485.98</ele><time>2025-12-18T00:41:29.000Z</time></trkpt>
        <trkpt lat="28.6697222" lon="105.653244"><ele>483.58</ele><time>2025-12-18T00:41:43.000Z</time></trkpt>
        <trkpt lat="28.6698157" lon="105.6532895"><ele>480.31</ele><time>2025-12-18T00:42:11.000Z</time></trkpt>
        <trkpt lat="28.6698674" lon="105.6533796"><ele>478.92</ele><time>2025-12-18T00:44:39.000Z</time></trkpt>
        <trkpt lat="28.6698843" lon="105.6534837"><ele>477.42</ele><time>2025-12-18T00:44:57.000Z</time></trkpt>
        <trkpt lat="28.6698588" lon="105.6535859"><ele>475.5</ele><time>2025-12-18T00:45:15.000Z</time></trkpt>
        <trkpt lat="28.6698388" lon="105.653694"><ele>471.82</ele><time>2025-12-18T00:45:27.000Z</time></trkpt>
        <trkpt lat="28.6698372" lon="105.6538212"><ele>468.47</ele><time>2025-12-18T00:45:41.000Z</time></trkpt>
        <trkpt lat="28.6698324" lon="105.6539325"><ele>466.08</ele><time>2025-12-18T00:45:49.000Z</time></trkpt>
        <trkpt lat="28.6698717" lon="105.654045"><ele>463.73</ele><time>2025-12-18T00:45:59.000Z</time></trkpt>
        <trkpt lat="28.669911" lon="105.6541475"><ele>463.05</ele><time>2025-12-18T00:46:09.000Z</time></trkpt>
        <trkpt lat="28.6699969" lon="105.6541849"><ele>462.71</ele><time>2025-12-18T00:46:23.000Z</time></trkpt>
        <trkpt lat="28.6700997" lon="105.6542315"><ele>462.52</ele><time>2025-12-18T00:46:35.000Z</time></trkpt>
        <trkpt lat="28.6701542" lon="105.6542362"><ele>462</ele><time>2025-12-18T00:46:41.000Z</time></trkpt>
        <trkpt lat="28.6702362" lon="105.6542331"><ele>461.4</ele><time>2025-12-18T00:47:31.000Z</time></trkpt>
        <trkpt lat="28.6702382" lon="105.6542297"><ele>457.65</ele><time>2025-12-18T00:47:33.000Z</time></trkpt>
        <trkpt lat="28.670386" lon="105.6541659"><ele>454.03</ele><time>2025-12-18T00:49:22.000Z</time></trkpt>
        <trkpt lat="28.6703754" lon="105.6541768"><ele>450.65</ele><time>2025-12-18T00:49:24.000Z</time></trkpt>
        <trkpt lat="28.670417" lon="105.6542582"><ele>448.83</ele><time>2025-12-18T00:50:02.000Z</time></trkpt>
        <trkpt lat="28.6705042" lon="105.6542988"><ele>445.1</ele><time>2025-12-18T00:50:12.000Z</time></trkpt>
        <trkpt lat="28.670508" lon="105.6542852"><ele>442.49</ele><time>2025-12-18T00:50:22.000Z</time></trkpt>
        <trkpt lat="28.6705821" lon="105.6542551"><ele>441.33</ele><time>2025-12-18T00:50:34.000Z</time></trkpt>
        <trkpt lat="28.6706613" lon="105.654303"><ele>441.65</ele><time>2025-12-18T00:50:48.000Z</time></trkpt>
        <trkpt lat="28.6707035" lon="105.6544093"><ele>440.05</ele><time>2025-12-18T00:51:06.000Z</time></trkpt>
        <trkpt lat="28.6707392" lon="105.6545228"><ele>436.13</ele><time>2025-12-18T00:51:20.000Z</time></trkpt>
        <trkpt lat="28.6707863" lon="105.6546268"><ele>432.04</ele><time>2025-12-18T00:51:40.000Z</time></trkpt>
        <trkpt lat="28.6707942" lon="105.654734"><ele>427.36</ele><time>2025-12-18T00:51:52.000Z</time></trkpt>
        <trkpt lat="28.6708031" lon="105.6548459"><ele>423.85</ele><time>2025-12-18T00:52:04.000Z</time></trkpt>
        <trkpt lat="28.6707848" lon="105.6549512"><ele>420.96</ele><time>2025-12-18T00:52:16.000Z</time></trkpt>
        <trkpt lat="28.6707584" lon="105.6550645"><ele>418.75</ele><time>2025-12-18T00:52:28.000Z</time></trkpt>
        <trkpt lat="28.6707144" lon="105.6551721"><ele>416.52</ele><time>2025-12-18T00:52:38.000Z</time></trkpt>
        <trkpt lat="28.6707006" lon="105.6552668"><ele>415.21</ele><time>2025-12-18T00:52:48.000Z</time></trkpt>
        <trkpt lat="28.6706958" lon="105.655206"><ele>414.11</ele><time>2025-12-18T00:53:32.000Z</time></trkpt>
        <trkpt lat="28.6707152" lon="105.6552571"><ele>414.85</ele><time>2025-12-18T00:53:56.000Z</time></trkpt>
        <trkpt lat="28.6707377" lon="105.6553523"><ele>414.37</ele><time>2025-12-18T00:54:06.000Z</time></trkpt>
        <trkpt lat="28.6708055" lon="105.6553571"><ele>414.08</ele><time>2025-12-18T00:54:34.000Z</time></trkpt>
        <trkpt lat="28.6707883" lon="105.6552794"><ele>414.45</ele><time>2025-12-18T00:54:56.000Z</time></trkpt>
        <trkpt lat="28.6708531" lon="105.6551837"><ele>413.26</ele><time>2025-12-18T00:55:08.000Z</time></trkpt>
        <trkpt lat="28.6708658" lon="105.6551289"><ele>411.91</ele><time>2025-12-18T00:55:12.000Z</time></trkpt>
        <trkpt lat="28.6709294" lon="105.655088"><ele>411.01</ele><time>2025-12-18T00:55:20.000Z</time></trkpt>
        <trkpt lat="28.6709968" lon="105.6550192"><ele>409.21</ele><time>2025-12-18T00:55:36.000Z</time></trkpt>
        <trkpt lat="28.6710117" lon="105.6551181"><ele>407.9</ele><time>2025-12-18T00:57:06.000Z</time></trkpt>
        <trkpt lat="28.6711076" lon="105.6551073"><ele>400.6</ele><time>2025-12-18T00:57:20.000Z</time></trkpt>
        <trkpt lat="28.6711864" lon="105.6550429"><ele>395.53</ele><time>2025-12-18T00:57:48.000Z</time></trkpt>
        <trkpt lat="28.6712783" lon="105.654998"><ele>392.25</ele><time>2025-12-18T00:58:02.000Z</time></trkpt>
        <trkpt lat="28.6713674" lon="105.6550362"><ele>391.08</ele><time>2025-12-18T00:58:14.000Z</time></trkpt>
        <trkpt lat="28.6714329" lon="105.6551153"><ele>391.43</ele><time>2025-12-18T00:58:24.000Z</time></trkpt>
        <trkpt lat="28.6714522" lon="105.6552258"><ele>392.06</ele><time>2025-12-18T00:58:38.000Z</time></trkpt>
        <trkpt lat="28.6714955" lon="105.6553195"><ele>391.25</ele><time>2025-12-18T00:58:54.000Z</time></trkpt>
        <trkpt lat="28.6715446" lon="105.6554145"><ele>389.28</ele><time>2025-12-18T00:59:10.000Z</time></trkpt>
        <trkpt lat="28.6716035" lon="105.6554961"><ele>385.25</ele><time>2025-12-18T00:59:22.000Z</time></trkpt>
        <trkpt lat="28.671647" lon="105.6555941"><ele>382.9</ele><time>2025-12-18T00:59:46.000Z</time></trkpt>
        <trkpt lat="28.6717026" lon="105.6556887"><ele>381.79</ele><time>2025-12-18T00:59:56.000Z</time></trkpt>
        <trkpt lat="28.6717189" lon="105.6557312"><ele>380.63</ele><time>2025-12-18T01:00:02.000Z</time></trkpt>
        <trkpt lat="28.6717522" lon="105.6558194"><ele>378.66</ele><time>2025-12-18T01:00:14.000Z</time></trkpt>
        <trkpt lat="28.6717602" lon="105.6559291"><ele>377.75</ele><time>2025-12-18T01:00:26.000Z</time></trkpt>
        <trkpt lat="28.6717294" lon="105.6560438"><ele>377.68</ele><time>2025-12-18T01:00:38.000Z</time></trkpt>
        <trkpt lat="28.6717094" lon="105.656156"><ele>377.33</ele><time>2025-12-18T01:00:48.000Z</time></trkpt>
        <trkpt lat="28.6716905" lon="105.6562732"><ele>377.08</ele><time>2025-12-18T01:01:00.000Z</time></trkpt>
        <trkpt lat="28.6717273" lon="105.6563728"><ele>376.2</ele><time>2025-12-18T01:01:10.000Z</time></trkpt>
        <trkpt lat="28.6717757" lon="105.6564732"><ele>376.29</ele><time>2025-12-18T01:01:20.000Z</time></trkpt>
        <trkpt lat="28.6717945" lon="105.6565835"><ele>377.52</ele><time>2025-12-18T01:01:32.000Z</time></trkpt>
        <trkpt lat="28.6717786" lon="105.6566883"><ele>377.25</ele><time>2025-12-18T01:01:42.000Z</time></trkpt>
        <trkpt lat="28.6717631" lon="105.6567921"><ele>377.68</ele><time>2025-12-18T01:01:52.000Z</time></trkpt>
        <trkpt lat="28.6717991" lon="105.6568938"><ele>376.04</ele><time>2025-12-18T01:02:16.000Z</time></trkpt>
        <trkpt lat="28.6718585" lon="105.656992"><ele>375.31</ele><time>2025-12-18T01:02:28.000Z</time></trkpt>
        <trkpt lat="28.6719542" lon="105.6570499"><ele>374.9</ele><time>2025-12-18T01:02:40.000Z</time></trkpt>
        <trkpt lat="28.6720535" lon="105.657065"><ele>373.65</ele><time>2025-12-18T01:02:50.000Z</time></trkpt>
        <trkpt lat="28.6720823" lon="105.6570756"><ele>372.99</ele><time>2025-12-18T01:02:56.000Z</time></trkpt>
        <trkpt lat="28.6721383" lon="105.6571237"><ele>373.58</ele><time>2025-12-18T01:03:28.000Z</time></trkpt>
        <trkpt lat="28.6722307" lon="105.6571614"><ele>372.25</ele><time>2025-12-18T01:03:38.000Z</time></trkpt>
        <trkpt lat="28.6723242" lon="105.6571956"><ele>371.62</ele><time>2025-12-18T01:04:12.000Z</time></trkpt>
        <trkpt lat="28.6724167" lon="105.6571781"><ele>371.53</ele><time>2025-12-18T01:04:38.000Z</time></trkpt>
        <trkpt lat="28.67245" lon="105.6572514"><ele>370.76</ele><time>2025-12-18T01:04:50.000Z</time></trkpt>
        <trkpt lat="28.6724212" lon="105.6573476"><ele>370.13</ele><time>2025-12-18T01:05:04.000Z</time></trkpt>
        <trkpt lat="28.6723995" lon="105.657468"><ele>368.71</ele><time>2025-12-18T01:05:18.000Z</time></trkpt>
        <trkpt lat="28.6723731" lon="105.6575813"><ele>367.92</ele><time>2025-12-18T01:05:28.000Z</time></trkpt>
        <trkpt lat="28.6723233" lon="105.6576812"><ele>366.94</ele><time>2025-12-18T01:05:40.000Z</time></trkpt>
        <trkpt lat="28.6723282" lon="105.6577561"><ele>365.56</ele><time>2025-12-18T01:05:54.000Z</time></trkpt>
        <trkpt lat="28.6723774" lon="105.657835"><ele>364.85</ele><time>2025-12-18T01:06:44.000Z</time></trkpt>
        <trkpt lat="28.6724685" lon="105.6579034"><ele>365.74</ele><time>2025-12-18T01:07:28.000Z</time></trkpt>
        <trkpt lat="28.6725562" lon="105.6579802"><ele>366.24</ele><time>2025-12-18T01:07:38.000Z</time></trkpt>
        <trkpt lat="28.6725906" lon="105.6580116"><ele>367.22</ele><time>2025-12-18T01:07:44.000Z</time></trkpt>
        <trkpt lat="28.6726408" lon="105.6580709"><ele>367.69</ele><time>2025-12-18T01:08:04.000Z</time></trkpt>
        <trkpt lat="28.672723" lon="105.658101"><ele>367.18</ele><time>2025-12-18T01:08:16.000Z</time></trkpt>
        <trkpt lat="28.6728239" lon="105.6581077"><ele>367.28</ele><time>2025-12-18T01:08:36.000Z</time></trkpt>
        <trkpt lat="28.6729153" lon="105.65815"><ele>366.93</ele><time>2025-12-18T01:08:44.000Z</time></trkpt>
        <trkpt lat="28.6730109" lon="105.658197"><ele>365.91</ele><time>2025-12-18T01:08:54.000Z</time></trkpt>
        <trkpt lat="28.6730944" lon="105.6582487"><ele>364.98</ele><time>2025-12-18T01:09:06.000Z</time></trkpt>
        <trkpt lat="28.6731139" lon="105.6582382"><ele>363.72</ele><time>2025-12-18T01:09:10.000Z</time></trkpt>
        <trkpt lat="28.6731547" lon="105.6582883"><ele>363.04</ele><time>2025-12-18T01:09:24.000Z</time></trkpt>
        <trkpt lat="28.673242" lon="105.6582984"><ele>362.49</ele><time>2025-12-18T01:09:38.000Z</time></trkpt>
        <trkpt lat="28.6733429" lon="105.6582785"><ele>362.25</ele><time>2025-12-18T01:09:48.000Z</time></trkpt>
        <trkpt lat="28.673429" lon="105.6582064"><ele>362.54</ele><time>2025-12-18T01:10:00.000Z</time></trkpt>
        <trkpt lat="28.6735262" lon="105.6581862"><ele>362.43</ele><time>2025-12-18T01:10:20.000Z</time></trkpt>
        <trkpt lat="28.6736094" lon="105.6582261"><ele>361.72</ele><time>2025-12-18T01:10:36.000Z</time></trkpt>
        <trkpt lat="28.6737067" lon="105.6582672"><ele>360.09</ele><time>2025-12-18T01:10:46.000Z</time></trkpt>
        <trkpt lat="28.6737897" lon="105.6583399"><ele>359.73</ele><time>2025-12-18T01:10:56.000Z</time></trkpt>
        <trkpt lat="28.6738076" lon="105.6584435"><ele>360.63</ele><time>2025-12-18T01:11:08.000Z</time></trkpt>
        <trkpt lat="28.6737682" lon="105.6585505"><ele>362.82</ele><time>2025-12-18T01:11:18.000Z</time></trkpt>
        <trkpt lat="28.673718" lon="105.6586568"><ele>365.4</ele><time>2025-12-18T01:11:28.000Z</time></trkpt>
        <trkpt lat="28.6736772" lon="105.65877"><ele>367.57</ele><time>2025-12-18T01:11:38.000Z</time></trkpt>
        <trkpt lat="28.6736461" lon="105.6588842"><ele>369.61</ele><time>2025-12-18T01:11:48.000Z</time></trkpt>
        <trkpt lat="28.6736208" lon="105.659003"><ele>370.67</ele><time>2025-12-18T01:12:00.000Z</time></trkpt>
        <trkpt lat="28.6736033" lon="105.6591209"><ele>371.37</ele><time>2025-12-18T01:12:10.000Z</time></trkpt>
        <trkpt lat="28.6736223" lon="105.6592354"><ele>371.53</ele><time>2025-12-18T01:12:20.000Z</time></trkpt>
        <trkpt lat="28.6736895" lon="105.6593132"><ele>371.12</ele><time>2025-12-18T01:12:32.000Z</time></trkpt>
        <trkpt lat="28.6737843" lon="105.6593303"><ele>369.73</ele><time>2025-12-18T01:12:42.000Z</time></trkpt>
        <trkpt lat="28.6738901" lon="105.65932"><ele>368.46</ele><time>2025-12-18T01:12:52.000Z</time></trkpt>
        <trkpt lat="28.6739943" lon="105.6592792"><ele>367.38</ele><time>2025-12-18T01:13:02.000Z</time></trkpt>
        <trkpt lat="28.6740996" lon="105.6592356"><ele>366.57</ele><time>2025-12-18T01:13:12.000Z</time></trkpt>
        <trkpt lat="28.6742076" lon="105.6592354"><ele>365.62</ele><time>2025-12-18T01:13:22.000Z</time></trkpt>
        <trkpt lat="28.6742505" lon="105.6593162"><ele>365.14</ele><time>2025-12-18T01:13:32.000Z</time></trkpt>
        <trkpt lat="28.6742575" lon="105.6594288"><ele>365.11</ele><time>2025-12-18T01:13:46.000Z</time></trkpt>
        <trkpt lat="28.6742701" lon="105.6595411"><ele>365.28</ele><time>2025-12-18T01:14:00.000Z</time></trkpt>
        <trkpt lat="28.6743077" lon="105.6596482"><ele>365.87</ele><time>2025-12-18T01:14:14.000Z</time></trkpt>
        <trkpt lat="28.6743261" lon="105.6597533"><ele>366.41</ele><time>2025-12-18T01:14:26.000Z</time></trkpt>
        <trkpt lat="28.6742999" lon="105.6598584"><ele>366.52</ele><time>2025-12-18T01:14:40.000Z</time></trkpt>
        <trkpt lat="28.6742581" lon="105.6599557"><ele>367.32</ele><time>2025-12-18T01:15:12.000Z</time></trkpt>
        <trkpt lat="28.6742295" lon="105.6600702"><ele>368.07</ele><time>2025-12-18T01:15:24.000Z</time></trkpt>
        <trkpt lat="28.6742178" lon="105.6601901"><ele>369.12</ele><time>2025-12-18T01:15:36.000Z</time></trkpt>
        <trkpt lat="28.6742314" lon="105.6603064"><ele>369.42</ele><time>2025-12-18T01:15:48.000Z</time></trkpt>
        <trkpt lat="28.6742683" lon="105.6604187"><ele>369.76</ele><time>2025-12-18T01:16:00.000Z</time></trkpt>
        <trkpt lat="28.6743412" lon="105.6605131"><ele>369.51</ele><time>2025-12-18T01:16:14.000Z</time></trkpt>
        <trkpt lat="28.6743905" lon="105.660552"><ele>369.73</ele><time>2025-12-18T01:16:18.000Z</time></trkpt>
        <trkpt lat="28.6744651" lon="105.6605919"><ele>370.43</ele><time>2025-12-18T01:16:30.000Z</time></trkpt>
        <trkpt lat="28.6744121" lon="105.6605712"><ele>372.46</ele><time>2025-12-18T01:17:02.000Z</time></trkpt>
        <trkpt lat="28.6744107" lon="105.6606343"><ele>372.67</ele><time>2025-12-18T01:17:22.000Z</time></trkpt>
        <trkpt lat="28.6744655" lon="105.6607207"><ele>371.55</ele><time>2025-12-18T01:17:30.000Z</time></trkpt>
        <trkpt lat="28.6745319" lon="105.660823"><ele>370.8</ele><time>2025-12-18T01:17:42.000Z</time></trkpt>
        <trkpt lat="28.674578" lon="105.6609339"><ele>369.12</ele><time>2025-12-18T01:17:54.000Z</time></trkpt>
        <trkpt lat="28.6746437" lon="105.6610332"><ele>367.91</ele><time>2025-12-18T01:18:04.000Z</time></trkpt>
        <trkpt lat="28.6747151" lon="105.6611177"><ele>366.97</ele><time>2025-12-18T01:18:14.000Z</time></trkpt>
        <trkpt lat="28.6747839" lon="105.6611917"><ele>365.07</ele><time>2025-12-18T01:18:26.000Z</time></trkpt>
        <trkpt lat="28.6748002" lon="105.6612337"><ele>362.92</ele><time>2025-12-18T01:18:32.000Z</time></trkpt>
        <trkpt lat="28.6748843" lon="105.6612241"><ele>361.41</ele><time>2025-12-18T01:18:48.000Z</time></trkpt>
        <trkpt lat="28.6749828" lon="105.6612536"><ele>357.77</ele><time>2025-12-18T01:18:56.000Z</time></trkpt>
        <trkpt lat="28.6750559" lon="105.661319"><ele>355.93</ele><time>2025-12-18T01:19:04.000Z</time></trkpt>
        <trkpt lat="28.6751093" lon="105.6614069"><ele>355.84</ele><time>2025-12-18T01:19:12.000Z</time></trkpt>
        <trkpt lat="28.6751479" lon="105.6614764"><ele>355.81</ele><time>2025-12-18T01:19:22.000Z</time></trkpt>
        <trkpt lat="28.6752234" lon="105.6615412"><ele>356.97</ele><time>2025-12-18T01:20:26.000Z</time></trkpt>
        <trkpt lat="28.675666" lon="105.6618478"><ele>357.64</ele><time>2025-12-18T01:21:29.000Z</time></trkpt>
        <trkpt lat="28.6757506" lon="105.6618923"><ele>353.88</ele><time>2025-12-18T01:22:01.000Z</time></trkpt>
        <trkpt lat="28.6756929" lon="105.6628138"><ele>349.32</ele><time>2025-12-18T01:24:21.000Z</time></trkpt>
        <trkpt lat="28.6756076" lon="105.6628591"><ele>345.64</ele><time>2025-12-18T01:24:45.000Z</time></trkpt>
        <trkpt lat="28.6755333" lon="105.6629238"><ele>342.21</ele><time>2025-12-18T01:24:59.000Z</time></trkpt>
        <trkpt lat="28.6754473" lon="105.66295"><ele>341.17</ele><time>2025-12-18T01:25:13.000Z</time></trkpt>
        <trkpt lat="28.6750674" lon="105.6633864"><ele>340.04</ele><time>2025-12-18T01:27:05.000Z</time></trkpt>
        <trkpt lat="28.6747834" lon="105.6646358"><ele>333.84</ele><time>2025-12-18T01:31:08.000Z</time></trkpt>
        <trkpt lat="28.6747695" lon="105.6647273"><ele>319.34</ele><time>2025-12-18T01:31:22.000Z</time></trkpt>
        <trkpt lat="28.6749187" lon="105.6665059"><ele>309.67</ele><time>2025-12-18T01:34:44.000Z</time></trkpt>
        <trkpt lat="28.6749798" lon="105.666609"><ele>292.53</ele><time>2025-12-18T01:34:54.000Z</time></trkpt>
        <trkpt lat="28.6749877" lon="105.6667206"><ele>283.33</ele><time>2025-12-18T01:35:04.000Z</time></trkpt>
        <trkpt lat="28.6749655" lon="105.666839"><ele>277.73</ele><time>2025-12-18T01:35:14.000Z</time></trkpt>
        <trkpt lat="28.6749357" lon="105.6669535"><ele>274.61</ele><time>2025-12-18T01:35:24.000Z</time></trkpt>
        <trkpt lat="28.6749163" lon="105.6670647"><ele>273.32</ele><time>2025-12-18T01:35:34.000Z</time></trkpt>
        <trkpt lat="28.6749" lon="105.6671754"><ele>272.46</ele><time>2025-12-18T01:35:46.000Z</time></trkpt>
        <trkpt lat="28.6748795" lon="105.667288"><ele>271.49</ele><time>2025-12-18T01:35:56.000Z</time></trkpt>
        <trkpt lat="28.6748563" lon="105.6673985"><ele>270.44</ele><time>2025-12-18T01:36:06.000Z</time></trkpt>
        <trkpt lat="28.6748299" lon="105.6675061"><ele>270.02</ele><time>2025-12-18T01:36:16.000Z</time></trkpt>
        <trkpt lat="28.6748082" lon="105.6676076"><ele>269.91</ele><time>2025-12-18T01:36:24.000Z</time></trkpt>
        <trkpt lat="28.6747769" lon="105.6676766"><ele>270.11</ele><time>2025-12-18T01:36:40.000Z</time></trkpt>
        <trkpt lat="28.6748252" lon="105.6677502"><ele>270.79</ele><time>2025-12-18T01:36:56.000Z</time></trkpt>
        <trkpt lat="28.6748845" lon="105.6678348"><ele>270.73</ele><time>2025-12-18T01:37:04.000Z</time></trkpt>
        <trkpt lat="28.6749287" lon="105.6679305"><ele>270.85</ele><time>2025-12-18T01:37:12.000Z</time></trkpt>
        <trkpt lat="28.6749816" lon="105.6680258"><ele>270.94</ele><time>2025-12-18T01:37:20.000Z</time></trkpt>
        <trkpt lat="28.675027" lon="105.6681208"><ele>270.93</ele><time>2025-12-18T01:37:28.000Z</time></trkpt>
        <trkpt lat="28.6750676" lon="105.6682276"><ele>271.18</ele><time>2025-12-18T01:37:38.000Z</time></trkpt>
        <trkpt lat="28.6751153" lon="105.6683398"><ele>271.04</ele><time>2025-12-18T01:37:48.000Z</time></trkpt>
        <trkpt lat="28.6751507" lon="105.6684589"><ele>270.99</ele><time>2025-12-18T01:37:58.000Z</time></trkpt>
        <trkpt lat="28.6751671" lon="105.6685838"><ele>270.77</ele><time>2025-12-18T01:38:08.000Z</time></trkpt>
        <trkpt lat="28.6751706" lon="105.6687115"><ele>270.34</ele><time>2025-12-18T01:38:18.000Z</time></trkpt>
        <trkpt lat="28.6751757" lon="105.6688382"><ele>270.66</ele><time>2025-12-18T01:38:28.000Z</time></trkpt>
        <trkpt lat="28.6751644" lon="105.6689539"><ele>271.3</ele><time>2025-12-18T01:38:38.000Z</time></trkpt>
        <trkpt lat="28.675187" lon="105.6690741"><ele>271.41</ele><time>2025-12-18T01:38:48.000Z</time></trkpt>
        <trkpt lat="28.6752198" lon="105.6691895"><ele>271.52</ele><time>2025-12-18T01:38:58.000Z</time></trkpt>
        <trkpt lat="28.6752448" lon="105.6692967"><ele>271.77</ele><time>2025-12-18T01:39:08.000Z</time></trkpt>
        <trkpt lat="28.6753219" lon="105.6693576"><ele>271.83</ele><time>2025-12-18T01:39:28.000Z</time></trkpt>
        <trkpt lat="28.6754133" lon="105.6693954"><ele>273.14</ele><time>2025-12-18T01:39:40.000Z</time></trkpt>
        <trkpt lat="28.6754848" lon="105.669469"><ele>274.11</ele><time>2025-12-18T01:39:52.000Z</time></trkpt>
        <trkpt lat="28.6755366" lon="105.6695635"><ele>275.02</ele><time>2025-12-18T01:40:02.000Z</time></trkpt>
        <trkpt lat="28.6755831" lon="105.6696595"><ele>275.37</ele><time>2025-12-18T01:40:12.000Z</time></trkpt>
        <trkpt lat="28.6756311" lon="105.6697611"><ele>275.43</ele><time>2025-12-18T01:40:22.000Z</time></trkpt>
        <trkpt lat="28.6756671" lon="105.6698678"><ele>275.44</ele><time>2025-12-18T01:40:32.000Z</time></trkpt>
        <trkpt lat="28.6756817" lon="105.6699877"><ele>275.25</ele><time>2025-12-18T01:40:42.000Z</time></trkpt>
        <trkpt lat="28.675672" lon="105.6701029"><ele>275.4</ele><time>2025-12-18T01:40:52.000Z</time></trkpt>
        <trkpt lat="28.675672" lon="105.6701029"><ele>275.4</ele><time>2025-12-18T01:40:55.000Z</time></trkpt>
      </trkseg>
  </trk>
</gpx>